<?xml version="1.0" encoding="UTF-8" standalone="no" ?>
<gpx xmlns="http://www.topografix.com/GPX/1/1" xmlns:xsi="http://www.w3.org/2001/XMLSchema-instance" xsi:schemaLocation="http://www.topografix.com/GPX/1/1 http://www.topografix.com/GPX/1/1/gpx.xsd" version="1.1" creator="VisuGPX - https://www.visugpx.com">
  <metadata>
    <name>BELVEDERE DU RIVET</name>
    <desc><![CDATA[Belvédère du Rivet,retour par la chartreuse des Ecouges.]]></desc>
  </metadata>
  <trk>
    <name><![CDATA[21-OCT-12 17:16:27]]></name>
    <trkseg>
      <trkpt lat="45.17682" lon="5.49848">
        <ele>881.19</ele>
        <time>2012-10-21T12:05:07Z</time>
      </trkpt>
      <trkpt lat="45.17682" lon="5.49848">
        <ele>886.95</ele>
        <time>2012-10-21T12:05:29Z</time>
      </trkpt>
      <trkpt lat="45.17689" lon="5.4985">
        <ele>883.59</ele>
        <time>2012-10-21T12:05:35Z</time>
      </trkpt>
      <trkpt lat="45.17709" lon="5.49852">
        <ele>881.67</ele>
        <time>2012-10-21T12:05:56Z</time>
      </trkpt>
      <trkpt lat="45.17717" lon="5.49836">
        <ele>886.95</ele>
        <time>2012-10-21T12:06:12Z</time>
      </trkpt>
      <trkpt lat="45.17718" lon="5.49834">
        <ele>886.95</ele>
        <time>2012-10-21T12:06:14Z</time>
      </trkpt>
      <trkpt lat="45.17723" lon="5.49826">
        <ele>889.84</ele>
        <time>2012-10-21T12:06:21Z</time>
      </trkpt>
      <trkpt lat="45.17727" lon="5.49824">
        <ele>889.84</ele>
        <time>2012-10-21T12:06:24Z</time>
      </trkpt>
      <trkpt lat="45.17734" lon="5.49821">
        <ele>893.2</ele>
        <time>2012-10-21T12:06:32Z</time>
      </trkpt>
      <trkpt lat="45.17761" lon="5.49838">
        <ele>896.09</ele>
        <time>2012-10-21T12:06:52Z</time>
      </trkpt>
      <trkpt lat="45.17776" lon="5.49845">
        <ele>899.93</ele>
        <time>2012-10-21T12:07:11Z</time>
      </trkpt>
      <trkpt lat="45.17792" lon="5.49849">
        <ele>909.54</ele>
        <time>2012-10-21T12:07:32Z</time>
      </trkpt>
      <trkpt lat="45.17808" lon="5.4986">
        <ele>919.16</ele>
        <time>2012-10-21T12:07:52Z</time>
      </trkpt>
      <trkpt lat="45.17828" lon="5.49871">
        <ele>917.24</ele>
        <time>2012-10-21T12:08:10Z</time>
      </trkpt>
      <trkpt lat="45.17852" lon="5.49888">
        <ele>916.27</ele>
        <time>2012-10-21T12:08:33Z</time>
      </trkpt>
      <trkpt lat="45.17876" lon="5.49894">
        <ele>923.48</ele>
        <time>2012-10-21T12:08:55Z</time>
      </trkpt>
      <trkpt lat="45.17879" lon="5.49895">
        <ele>924.45</ele>
        <time>2012-10-21T12:08:59Z</time>
      </trkpt>
      <trkpt lat="45.1788" lon="5.49897">
        <ele>925.41</ele>
        <time>2012-10-21T12:09:04Z</time>
      </trkpt>
      <trkpt lat="45.17899" lon="5.49912">
        <ele>932.14</ele>
        <time>2012-10-21T12:09:26Z</time>
      </trkpt>
      <trkpt lat="45.17927" lon="5.49918">
        <ele>933.58</ele>
        <time>2012-10-21T12:09:49Z</time>
      </trkpt>
      <trkpt lat="45.17949" lon="5.49938">
        <ele>935.02</ele>
        <time>2012-10-21T12:10:10Z</time>
      </trkpt>
      <trkpt lat="45.17975" lon="5.49955">
        <ele>930.69</ele>
        <time>2012-10-21T12:10:30Z</time>
      </trkpt>
      <trkpt lat="45.17997" lon="5.49959">
        <ele>924.93</ele>
        <time>2012-10-21T12:10:49Z</time>
      </trkpt>
      <trkpt lat="45.18015" lon="5.49958">
        <ele>922.04</ele>
        <time>2012-10-21T12:11:11Z</time>
      </trkpt>
      <trkpt lat="45.1804" lon="5.50002">
        <ele>923.48</ele>
        <time>2012-10-21T12:11:34Z</time>
      </trkpt>
      <trkpt lat="45.18046" lon="5.5">
        <ele>919.16</ele>
        <time>2012-10-21T12:11:58Z</time>
      </trkpt>
      <trkpt lat="45.18053" lon="5.50018">
        <ele>920.6</ele>
        <time>2012-10-21T12:12:29Z</time>
      </trkpt>
      <trkpt lat="45.18074" lon="5.50039">
        <ele>925.89</ele>
        <time>2012-10-21T12:12:50Z</time>
      </trkpt>
      <trkpt lat="45.18097" lon="5.50045">
        <ele>923</ele>
        <time>2012-10-21T12:13:09Z</time>
      </trkpt>
      <trkpt lat="45.18112" lon="5.5005">
        <ele>924.45</ele>
        <time>2012-10-21T12:13:22Z</time>
      </trkpt>
      <trkpt lat="45.18123" lon="5.5005">
        <ele>924.45</ele>
        <time>2012-10-21T12:13:29Z</time>
      </trkpt>
      <trkpt lat="45.18127" lon="5.50051">
        <ele>924.45</ele>
        <time>2012-10-21T12:13:32Z</time>
      </trkpt>
      <trkpt lat="45.18134" lon="5.50053">
        <ele>925.89</ele>
        <time>2012-10-21T12:13:38Z</time>
      </trkpt>
      <trkpt lat="45.18132" lon="5.50084">
        <ele>937.42</ele>
        <time>2012-10-21T12:13:57Z</time>
      </trkpt>
      <trkpt lat="45.18131" lon="5.50086">
        <ele>937.42</ele>
        <time>2012-10-21T12:13:58Z</time>
      </trkpt>
      <trkpt lat="45.18118" lon="5.50096">
        <ele>934.06</ele>
        <time>2012-10-21T12:14:17Z</time>
      </trkpt>
      <trkpt lat="45.18097" lon="5.50102">
        <ele>933.1</ele>
        <time>2012-10-21T12:14:41Z</time>
      </trkpt>
      <trkpt lat="45.18075" lon="5.5011">
        <ele>934.06</ele>
        <time>2012-10-21T12:14:59Z</time>
      </trkpt>
      <trkpt lat="45.18064" lon="5.50123">
        <ele>936.46</ele>
        <time>2012-10-21T12:15:20Z</time>
      </trkpt>
      <trkpt lat="45.18071" lon="5.50126">
        <ele>937.9</ele>
        <time>2012-10-21T12:15:27Z</time>
      </trkpt>
      <trkpt lat="45.18079" lon="5.50133">
        <ele>939.35</ele>
        <time>2012-10-21T12:15:41Z</time>
      </trkpt>
      <trkpt lat="45.181" lon="5.50131">
        <ele>936.94</ele>
        <time>2012-10-21T12:16:01Z</time>
      </trkpt>
      <trkpt lat="45.18106" lon="5.50131">
        <ele>936.46</ele>
        <time>2012-10-21T12:16:06Z</time>
      </trkpt>
      <trkpt lat="45.18127" lon="5.50124">
        <ele>941.75</ele>
        <time>2012-10-21T12:16:23Z</time>
      </trkpt>
      <trkpt lat="45.18141" lon="5.50118">
        <ele>945.11</ele>
        <time>2012-10-21T12:16:34Z</time>
      </trkpt>
      <trkpt lat="45.18166" lon="5.50126">
        <ele>942.23</ele>
        <time>2012-10-21T12:16:56Z</time>
      </trkpt>
      <trkpt lat="45.18186" lon="5.50157">
        <ele>947.04</ele>
        <time>2012-10-21T12:17:15Z</time>
      </trkpt>
      <trkpt lat="45.18209" lon="5.50172">
        <ele>948.48</ele>
        <time>2012-10-21T12:17:38Z</time>
      </trkpt>
      <trkpt lat="45.18228" lon="5.502">
        <ele>943.67</ele>
        <time>2012-10-21T12:18:01Z</time>
      </trkpt>
      <trkpt lat="45.18238" lon="5.50213">
        <ele>944.63</ele>
        <time>2012-10-21T12:18:20Z</time>
      </trkpt>
      <trkpt lat="45.18245" lon="5.5023">
        <ele>946.56</ele>
        <time>2012-10-21T12:18:34Z</time>
      </trkpt>
      <trkpt lat="45.18259" lon="5.50265">
        <ele>956.17</ele>
        <time>2012-10-21T12:18:54Z</time>
      </trkpt>
      <trkpt lat="45.18265" lon="5.50284">
        <ele>959.53</ele>
        <time>2012-10-21T12:19:06Z</time>
      </trkpt>
      <trkpt lat="45.18268" lon="5.50299">
        <ele>962.42</ele>
        <time>2012-10-21T12:19:17Z</time>
      </trkpt>
      <trkpt lat="45.18279" lon="5.50323">
        <ele>983.57</ele>
        <time>2012-10-21T12:19:41Z</time>
      </trkpt>
      <trkpt lat="45.18277" lon="5.50317">
        <ele>991.26</ele>
        <time>2012-10-21T12:19:59Z</time>
      </trkpt>
      <trkpt lat="45.18285" lon="5.50294">
        <ele>992.22</ele>
        <time>2012-10-21T12:20:18Z</time>
      </trkpt>
      <trkpt lat="45.18299" lon="5.50273">
        <ele>991.26</ele>
        <time>2012-10-21T12:20:39Z</time>
      </trkpt>
      <trkpt lat="45.18308" lon="5.50253">
        <ele>982.6</ele>
        <time>2012-10-21T12:20:59Z</time>
      </trkpt>
      <trkpt lat="45.18318" lon="5.50222">
        <ele>973.95</ele>
        <time>2012-10-21T12:21:22Z</time>
      </trkpt>
      <trkpt lat="45.18319" lon="5.50217">
        <ele>973.95</ele>
        <time>2012-10-21T12:21:25Z</time>
      </trkpt>
      <trkpt lat="45.18321" lon="5.50193">
        <ele>979.72</ele>
        <time>2012-10-21T12:21:47Z</time>
      </trkpt>
      <trkpt lat="45.18324" lon="5.50175">
        <ele>981.16</ele>
        <time>2012-10-21T12:21:59Z</time>
      </trkpt>
      <trkpt lat="45.18323" lon="5.50169">
        <ele>981.64</ele>
        <time>2012-10-21T12:22:05Z</time>
      </trkpt>
      <trkpt lat="45.18321" lon="5.50149">
        <ele>986.45</ele>
        <time>2012-10-21T12:22:22Z</time>
      </trkpt>
      <trkpt lat="45.18321" lon="5.50118">
        <ele>989.33</ele>
        <time>2012-10-21T12:22:40Z</time>
      </trkpt>
      <trkpt lat="45.18334" lon="5.50104">
        <ele>997.51</ele>
        <time>2012-10-21T12:23:00Z</time>
      </trkpt>
      <trkpt lat="45.18333" lon="5.50092">
        <ele>1003.75</ele>
        <time>2012-10-21T12:23:22Z</time>
      </trkpt>
      <trkpt lat="45.1834" lon="5.50109">
        <ele>1008.08</ele>
        <time>2012-10-21T12:23:59Z</time>
      </trkpt>
      <trkpt lat="45.18341" lon="5.50101">
        <ele>1014.81</ele>
        <time>2012-10-21T12:24:32Z</time>
      </trkpt>
      <trkpt lat="45.18342" lon="5.50104">
        <ele>1013.37</ele>
        <time>2012-10-21T12:24:59Z</time>
      </trkpt>
      <trkpt lat="45.18334" lon="5.50103">
        <ele>1021.54</ele>
        <time>2012-10-21T12:25:30Z</time>
      </trkpt>
      <trkpt lat="45.18336" lon="5.50106">
        <ele>1019.62</ele>
        <time>2012-10-21T12:25:52Z</time>
      </trkpt>
      <trkpt lat="45.18352" lon="5.50108">
        <ele>1016.25</ele>
        <time>2012-10-21T12:26:13Z</time>
      </trkpt>
      <trkpt lat="45.18367" lon="5.50123">
        <ele>1012.41</ele>
        <time>2012-10-21T12:26:36Z</time>
      </trkpt>
      <trkpt lat="45.18398" lon="5.50139">
        <ele>1008.56</ele>
        <time>2012-10-21T12:27:02Z</time>
      </trkpt>
      <trkpt lat="45.18427" lon="5.50152">
        <ele>1003.75</ele>
        <time>2012-10-21T12:27:30Z</time>
      </trkpt>
      <trkpt lat="45.18438" lon="5.50165">
        <ele>997.51</ele>
        <time>2012-10-21T12:27:50Z</time>
      </trkpt>
      <trkpt lat="45.18457" lon="5.5018">
        <ele>987.89</ele>
        <time>2012-10-21T12:28:13Z</time>
      </trkpt>
      <trkpt lat="45.18467" lon="5.50183">
        <ele>987.41</ele>
        <time>2012-10-21T12:28:20Z</time>
      </trkpt>
      <trkpt lat="45.18481" lon="5.50192">
        <ele>984.53</ele>
        <time>2012-10-21T12:28:37Z</time>
      </trkpt>
      <trkpt lat="45.185" lon="5.50208">
        <ele>977.8</ele>
        <time>2012-10-21T12:28:58Z</time>
      </trkpt>
      <trkpt lat="45.18525" lon="5.50225">
        <ele>980.2</ele>
        <time>2012-10-21T12:29:20Z</time>
      </trkpt>
      <trkpt lat="45.18536" lon="5.50234">
        <ele>980.2</ele>
        <time>2012-10-21T12:29:31Z</time>
      </trkpt>
      <trkpt lat="45.18554" lon="5.50252">
        <ele>979.72</ele>
        <time>2012-10-21T12:29:50Z</time>
      </trkpt>
      <trkpt lat="45.18556" lon="5.50256">
        <ele>979.24</ele>
        <time>2012-10-21T12:29:53Z</time>
      </trkpt>
      <trkpt lat="45.18572" lon="5.50273">
        <ele>978.76</ele>
        <time>2012-10-21T12:30:11Z</time>
      </trkpt>
      <trkpt lat="45.18582" lon="5.50289">
        <ele>979.72</ele>
        <time>2012-10-21T12:30:28Z</time>
      </trkpt>
      <trkpt lat="45.18595" lon="5.50309">
        <ele>983.09</ele>
        <time>2012-10-21T12:30:42Z</time>
      </trkpt>
      <trkpt lat="45.18603" lon="5.50322">
        <ele>983.09</ele>
        <time>2012-10-21T12:30:53Z</time>
      </trkpt>
      <trkpt lat="45.18611" lon="5.50332">
        <ele>983.09</ele>
        <time>2012-10-21T12:31:04Z</time>
      </trkpt>
      <trkpt lat="45.18631" lon="5.5035">
        <ele>984.05</ele>
        <time>2012-10-21T12:31:25Z</time>
      </trkpt>
      <trkpt lat="45.1865" lon="5.50371">
        <ele>992.22</ele>
        <time>2012-10-21T12:31:46Z</time>
      </trkpt>
      <trkpt lat="45.18664" lon="5.50387">
        <ele>996.06</ele>
        <time>2012-10-21T12:32:03Z</time>
      </trkpt>
      <trkpt lat="45.18678" lon="5.50408">
        <ele>996.54</ele>
        <time>2012-10-21T12:32:18Z</time>
      </trkpt>
      <trkpt lat="45.18695" lon="5.50424">
        <ele>995.58</ele>
        <time>2012-10-21T12:32:36Z</time>
      </trkpt>
      <trkpt lat="45.18714" lon="5.50447">
        <ele>1000.87</ele>
        <time>2012-10-21T12:32:58Z</time>
      </trkpt>
      <trkpt lat="45.18732" lon="5.50467">
        <ele>1007.12</ele>
        <time>2012-10-21T12:33:19Z</time>
      </trkpt>
      <trkpt lat="45.18735" lon="5.5047">
        <ele>1007.12</ele>
        <time>2012-10-21T12:33:21Z</time>
      </trkpt>
      <trkpt lat="45.18737" lon="5.50473">
        <ele>1007.12</ele>
        <time>2012-10-21T12:33:23Z</time>
      </trkpt>
      <trkpt lat="45.18757" lon="5.50497">
        <ele>1005.68</ele>
        <time>2012-10-21T12:33:42Z</time>
      </trkpt>
      <trkpt lat="45.1876" lon="5.50503">
        <ele>1006.64</ele>
        <time>2012-10-21T12:33:49Z</time>
      </trkpt>
      <trkpt lat="45.18762" lon="5.5051">
        <ele>1008.56</ele>
        <time>2012-10-21T12:33:53Z</time>
      </trkpt>
      <trkpt lat="45.18762" lon="5.50513">
        <ele>1009.52</ele>
        <time>2012-10-21T12:33:55Z</time>
      </trkpt>
      <trkpt lat="45.1877" lon="5.50526">
        <ele>1012.89</ele>
        <time>2012-10-21T12:34:05Z</time>
      </trkpt>
      <trkpt lat="45.1878" lon="5.50536">
        <ele>1014.81</ele>
        <time>2012-10-21T12:34:14Z</time>
      </trkpt>
      <trkpt lat="45.18796" lon="5.50545">
        <ele>1015.29</ele>
        <time>2012-10-21T12:34:29Z</time>
      </trkpt>
      <trkpt lat="45.188" lon="5.50548">
        <ele>1012.89</ele>
        <time>2012-10-21T12:34:33Z</time>
      </trkpt>
      <trkpt lat="45.18801" lon="5.50548">
        <ele>1011.93</ele>
        <time>2012-10-21T12:34:34Z</time>
      </trkpt>
      <trkpt lat="45.18812" lon="5.50559">
        <ele>1010.48</ele>
        <time>2012-10-21T12:34:44Z</time>
      </trkpt>
      <trkpt lat="45.18829" lon="5.50573">
        <ele>1009.04</ele>
        <time>2012-10-21T12:35:04Z</time>
      </trkpt>
      <trkpt lat="45.18852" lon="5.50588">
        <ele>1008.56</ele>
        <time>2012-10-21T12:35:26Z</time>
      </trkpt>
      <trkpt lat="45.18859" lon="5.50593">
        <ele>1009.04</ele>
        <time>2012-10-21T12:35:33Z</time>
      </trkpt>
      <trkpt lat="45.18876" lon="5.5061">
        <ele>1004.23</ele>
        <time>2012-10-21T12:35:51Z</time>
      </trkpt>
      <trkpt lat="45.18897" lon="5.50633">
        <ele>1002.79</ele>
        <time>2012-10-21T12:36:11Z</time>
      </trkpt>
      <trkpt lat="45.18908" lon="5.50652">
        <ele>1006.64</ele>
        <time>2012-10-21T12:36:27Z</time>
      </trkpt>
      <trkpt lat="45.18915" lon="5.50667">
        <ele>1004.72</ele>
        <time>2012-10-21T12:36:38Z</time>
      </trkpt>
      <trkpt lat="45.18911" lon="5.50679">
        <ele>1005.2</ele>
        <time>2012-10-21T12:36:47Z</time>
      </trkpt>
      <trkpt lat="45.18899" lon="5.50675">
        <ele>1007.12</ele>
        <time>2012-10-21T12:37:06Z</time>
      </trkpt>
      <trkpt lat="45.18889" lon="5.50673">
        <ele>1005.68</ele>
        <time>2012-10-21T12:37:25Z</time>
      </trkpt>
      <trkpt lat="45.18883" lon="5.5066">
        <ele>1006.16</ele>
        <time>2012-10-21T12:37:45Z</time>
      </trkpt>
      <trkpt lat="45.18883" lon="5.5064">
        <ele>1005.68</ele>
        <time>2012-10-21T12:38:03Z</time>
      </trkpt>
      <trkpt lat="45.18881" lon="5.50632">
        <ele>1007.6</ele>
        <time>2012-10-21T12:38:24Z</time>
      </trkpt>
      <trkpt lat="45.18878" lon="5.5064">
        <ele>1010.48</ele>
        <time>2012-10-21T12:38:59Z</time>
      </trkpt>
      <trkpt lat="45.18877" lon="5.50631">
        <ele>1009.04</ele>
        <time>2012-10-21T12:39:19Z</time>
      </trkpt>
      <trkpt lat="45.18881" lon="5.50625">
        <ele>1006.16</ele>
        <time>2012-10-21T12:39:40Z</time>
      </trkpt>
      <trkpt lat="45.18881" lon="5.50629">
        <ele>1003.75</ele>
        <time>2012-10-21T12:40:00Z</time>
      </trkpt>
      <trkpt lat="45.18871" lon="5.50623">
        <ele>1001.83</ele>
        <time>2012-10-21T12:40:33Z</time>
      </trkpt>
      <trkpt lat="45.18868" lon="5.50628">
        <ele>1002.31</ele>
        <time>2012-10-21T12:40:49Z</time>
      </trkpt>
      <trkpt lat="45.18869" lon="5.50619">
        <ele>1001.83</ele>
        <time>2012-10-21T12:41:24Z</time>
      </trkpt>
      <trkpt lat="45.18867" lon="5.50626">
        <ele>1003.27</ele>
        <time>2012-10-21T12:41:44Z</time>
      </trkpt>
      <trkpt lat="45.18871" lon="5.50629">
        <ele>1003.75</ele>
        <time>2012-10-21T12:42:05Z</time>
      </trkpt>
      <trkpt lat="45.1887" lon="5.50621">
        <ele>1003.27</ele>
        <time>2012-10-21T12:42:35Z</time>
      </trkpt>
      <trkpt lat="45.18867" lon="5.50613">
        <ele>1010</ele>
        <time>2012-10-21T12:43:12Z</time>
      </trkpt>
      <trkpt lat="45.18877" lon="5.50613">
        <ele>1008.08</ele>
        <time>2012-10-21T12:43:43Z</time>
      </trkpt>
      <trkpt lat="45.18868" lon="5.50621">
        <ele>1011.93</ele>
        <time>2012-10-21T12:44:15Z</time>
      </trkpt>
      <trkpt lat="45.18865" lon="5.50623">
        <ele>1016.25</ele>
        <time>2012-10-21T12:44:38Z</time>
      </trkpt>
      <trkpt lat="45.18861" lon="5.5063">
        <ele>1013.37</ele>
        <time>2012-10-21T12:45:15Z</time>
      </trkpt>
      <trkpt lat="45.18865" lon="5.50634">
        <ele>1014.81</ele>
        <time>2012-10-21T12:45:35Z</time>
      </trkpt>
      <trkpt lat="45.18864" lon="5.50632">
        <ele>1017.21</ele>
        <time>2012-10-21T12:46:18Z</time>
      </trkpt>
      <trkpt lat="45.18865" lon="5.50624">
        <ele>1012.41</ele>
        <time>2012-10-21T12:46:43Z</time>
      </trkpt>
      <trkpt lat="45.18869" lon="5.50628">
        <ele>1011.44</ele>
        <time>2012-10-21T12:47:12Z</time>
      </trkpt>
      <trkpt lat="45.18873" lon="5.50656">
        <ele>1005.2</ele>
        <time>2012-10-21T12:47:25Z</time>
      </trkpt>
      <trkpt lat="45.18874" lon="5.50686">
        <ele>1007.6</ele>
        <time>2012-10-21T12:47:44Z</time>
      </trkpt>
      <trkpt lat="45.18876" lon="5.50691">
        <ele>1008.08</ele>
        <time>2012-10-21T12:47:48Z</time>
      </trkpt>
      <trkpt lat="45.18891" lon="5.50717">
        <ele>1011.44</ele>
        <time>2012-10-21T12:48:09Z</time>
      </trkpt>
      <trkpt lat="45.18893" lon="5.50715">
        <ele>1011.44</ele>
        <time>2012-10-21T12:48:12Z</time>
      </trkpt>
      <trkpt lat="45.18896" lon="5.507">
        <ele>1016.73</ele>
        <time>2012-10-21T12:48:29Z</time>
      </trkpt>
      <trkpt lat="45.18905" lon="5.50678">
        <ele>1017.69</ele>
        <time>2012-10-21T12:48:49Z</time>
      </trkpt>
      <trkpt lat="45.18906" lon="5.50664">
        <ele>1019.62</ele>
        <time>2012-10-21T12:49:06Z</time>
      </trkpt>
      <trkpt lat="45.18914" lon="5.50658">
        <ele>1016.73</ele>
        <time>2012-10-21T12:49:23Z</time>
      </trkpt>
      <trkpt lat="45.18919" lon="5.50658">
        <ele>1016.73</ele>
        <time>2012-10-21T12:49:26Z</time>
      </trkpt>
      <trkpt lat="45.18937" lon="5.50664">
        <ele>1012.89</ele>
        <time>2012-10-21T12:49:48Z</time>
      </trkpt>
      <trkpt lat="45.18953" lon="5.50674">
        <ele>1012.89</ele>
        <time>2012-10-21T12:50:08Z</time>
      </trkpt>
      <trkpt lat="45.18955" lon="5.50673">
        <ele>1012.89</ele>
        <time>2012-10-21T12:50:10Z</time>
      </trkpt>
      <trkpt lat="45.18959" lon="5.50674">
        <ele>1013.85</ele>
        <time>2012-10-21T12:50:14Z</time>
      </trkpt>
      <trkpt lat="45.18962" lon="5.50676">
        <ele>1014.33</ele>
        <time>2012-10-21T12:50:17Z</time>
      </trkpt>
      <trkpt lat="45.18968" lon="5.50684">
        <ele>1018.65</ele>
        <time>2012-10-21T12:50:23Z</time>
      </trkpt>
      <trkpt lat="45.18983" lon="5.50701">
        <ele>1022.98</ele>
        <time>2012-10-21T12:50:42Z</time>
      </trkpt>
      <trkpt lat="45.18986" lon="5.50703">
        <ele>1023.94</ele>
        <time>2012-10-21T12:50:46Z</time>
      </trkpt>
      <trkpt lat="45.18997" lon="5.50708">
        <ele>1029.23</ele>
        <time>2012-10-21T12:51:06Z</time>
      </trkpt>
      <trkpt lat="45.19019" lon="5.50722">
        <ele>1031.63</ele>
        <time>2012-10-21T12:51:27Z</time>
      </trkpt>
      <trkpt lat="45.19027" lon="5.50736">
        <ele>1030.67</ele>
        <time>2012-10-21T12:51:45Z</time>
      </trkpt>
      <trkpt lat="45.1904" lon="5.50749">
        <ele>1029.23</ele>
        <time>2012-10-21T12:52:01Z</time>
      </trkpt>
      <trkpt lat="45.19046" lon="5.50753">
        <ele>1029.71</ele>
        <time>2012-10-21T12:52:08Z</time>
      </trkpt>
      <trkpt lat="45.1907" lon="5.50765">
        <ele>1030.19</ele>
        <time>2012-10-21T12:52:28Z</time>
      </trkpt>
      <trkpt lat="45.19087" lon="5.5077">
        <ele>1030.19</ele>
        <time>2012-10-21T12:52:47Z</time>
      </trkpt>
      <trkpt lat="45.1909" lon="5.50772">
        <ele>1029.23</ele>
        <time>2012-10-21T12:52:49Z</time>
      </trkpt>
      <trkpt lat="45.19104" lon="5.50793">
        <ele>1025.38</ele>
        <time>2012-10-21T12:53:07Z</time>
      </trkpt>
      <trkpt lat="45.19119" lon="5.50801">
        <ele>1028.27</ele>
        <time>2012-10-21T12:53:23Z</time>
      </trkpt>
      <trkpt lat="45.19124" lon="5.50807">
        <ele>1030.67</ele>
        <time>2012-10-21T12:53:29Z</time>
      </trkpt>
      <trkpt lat="45.19137" lon="5.50826">
        <ele>1032.11</ele>
        <time>2012-10-21T12:53:47Z</time>
      </trkpt>
      <trkpt lat="45.19141" lon="5.50828">
        <ele>1032.11</ele>
        <time>2012-10-21T12:53:51Z</time>
      </trkpt>
      <trkpt lat="45.19159" lon="5.50843">
        <ele>1027.79</ele>
        <time>2012-10-21T12:54:10Z</time>
      </trkpt>
      <trkpt lat="45.1917" lon="5.50856">
        <ele>1025.86</ele>
        <time>2012-10-21T12:54:29Z</time>
      </trkpt>
      <trkpt lat="45.19185" lon="5.50863">
        <ele>1025.86</ele>
        <time>2012-10-21T12:54:48Z</time>
      </trkpt>
      <trkpt lat="45.19202" lon="5.5088">
        <ele>1024.9</ele>
        <time>2012-10-21T12:55:07Z</time>
      </trkpt>
      <trkpt lat="45.19212" lon="5.50889">
        <ele>1026.83</ele>
        <time>2012-10-21T12:55:18Z</time>
      </trkpt>
      <trkpt lat="45.19238" lon="5.50903">
        <ele>1028.75</ele>
        <time>2012-10-21T12:55:39Z</time>
      </trkpt>
      <trkpt lat="45.19254" lon="5.50914">
        <ele>1033.55</ele>
        <time>2012-10-21T12:56:01Z</time>
      </trkpt>
      <trkpt lat="45.19265" lon="5.50921">
        <ele>1032.11</ele>
        <time>2012-10-21T12:56:24Z</time>
      </trkpt>
      <trkpt lat="45.19262" lon="5.50925">
        <ele>1031.15</ele>
        <time>2012-10-21T12:56:51Z</time>
      </trkpt>
      <trkpt lat="45.19275" lon="5.50929">
        <ele>1033.07</ele>
        <time>2012-10-21T12:57:10Z</time>
      </trkpt>
      <trkpt lat="45.19292" lon="5.50935">
        <ele>1033.07</ele>
        <time>2012-10-21T12:57:31Z</time>
      </trkpt>
      <trkpt lat="45.19304" lon="5.50936">
        <ele>1033.55</ele>
        <time>2012-10-21T12:57:45Z</time>
      </trkpt>
      <trkpt lat="45.19324" lon="5.50948">
        <ele>1041.25</ele>
        <time>2012-10-21T12:58:07Z</time>
      </trkpt>
      <trkpt lat="45.19333" lon="5.50953">
        <ele>1042.69</ele>
        <time>2012-10-21T12:58:18Z</time>
      </trkpt>
      <trkpt lat="45.19354" lon="5.50968">
        <ele>1044.13</ele>
        <time>2012-10-21T12:58:38Z</time>
      </trkpt>
      <trkpt lat="45.19368" lon="5.50984">
        <ele>1048.45</ele>
        <time>2012-10-21T12:58:55Z</time>
      </trkpt>
      <trkpt lat="45.19387" lon="5.50992">
        <ele>1046.05</ele>
        <time>2012-10-21T12:59:15Z</time>
      </trkpt>
      <trkpt lat="45.19389" lon="5.50994">
        <ele>1045.57</ele>
        <time>2012-10-21T12:59:17Z</time>
      </trkpt>
      <trkpt lat="45.19407" lon="5.51012">
        <ele>1047.01</ele>
        <time>2012-10-21T12:59:38Z</time>
      </trkpt>
      <trkpt lat="45.19423" lon="5.51022">
        <ele>1047.97</ele>
        <time>2012-10-21T12:59:53Z</time>
      </trkpt>
      <trkpt lat="45.19428" lon="5.51028">
        <ele>1049.42</ele>
        <time>2012-10-21T12:59:59Z</time>
      </trkpt>
      <trkpt lat="45.19448" lon="5.51043">
        <ele>1051.34</ele>
        <time>2012-10-21T13:00:21Z</time>
      </trkpt>
      <trkpt lat="45.19463" lon="5.51059">
        <ele>1053.74</ele>
        <time>2012-10-21T13:00:39Z</time>
      </trkpt>
      <trkpt lat="45.19479" lon="5.51076">
        <ele>1056.15</ele>
        <time>2012-10-21T13:00:59Z</time>
      </trkpt>
      <trkpt lat="45.19491" lon="5.51084">
        <ele>1059.99</ele>
        <time>2012-10-21T13:01:14Z</time>
      </trkpt>
      <trkpt lat="45.19512" lon="5.51092">
        <ele>1058.07</ele>
        <time>2012-10-21T13:01:35Z</time>
      </trkpt>
      <trkpt lat="45.19527" lon="5.51099">
        <ele>1058.55</ele>
        <time>2012-10-21T13:01:53Z</time>
      </trkpt>
      <trkpt lat="45.19549" lon="5.51112">
        <ele>1058.55</ele>
        <time>2012-10-21T13:02:17Z</time>
      </trkpt>
      <trkpt lat="45.19565" lon="5.51127">
        <ele>1061.91</ele>
        <time>2012-10-21T13:02:37Z</time>
      </trkpt>
      <trkpt lat="45.19582" lon="5.51141">
        <ele>1063.84</ele>
        <time>2012-10-21T13:02:58Z</time>
      </trkpt>
      <trkpt lat="45.19596" lon="5.51157">
        <ele>1064.32</ele>
        <time>2012-10-21T13:03:15Z</time>
      </trkpt>
      <trkpt lat="45.19614" lon="5.51175">
        <ele>1062.87</ele>
        <time>2012-10-21T13:03:38Z</time>
      </trkpt>
      <trkpt lat="45.1963" lon="5.51193">
        <ele>1059.99</ele>
        <time>2012-10-21T13:03:59Z</time>
      </trkpt>
      <trkpt lat="45.19649" lon="5.51211">
        <ele>1062.39</ele>
        <time>2012-10-21T13:04:21Z</time>
      </trkpt>
      <trkpt lat="45.19666" lon="5.51229">
        <ele>1065.28</ele>
        <time>2012-10-21T13:04:42Z</time>
      </trkpt>
      <trkpt lat="45.19684" lon="5.51233">
        <ele>1070.08</ele>
        <time>2012-10-21T13:05:04Z</time>
      </trkpt>
      <trkpt lat="45.19702" lon="5.5125">
        <ele>1076.81</ele>
        <time>2012-10-21T13:05:23Z</time>
      </trkpt>
      <trkpt lat="45.19708" lon="5.51259">
        <ele>1078.26</ele>
        <time>2012-10-21T13:05:31Z</time>
      </trkpt>
      <trkpt lat="45.19726" lon="5.51281">
        <ele>1086.91</ele>
        <time>2012-10-21T13:05:54Z</time>
      </trkpt>
      <trkpt lat="45.19746" lon="5.51304">
        <ele>1089.31</ele>
        <time>2012-10-21T13:06:15Z</time>
      </trkpt>
      <trkpt lat="45.19747" lon="5.51305">
        <ele>1089.31</ele>
        <time>2012-10-21T13:06:16Z</time>
      </trkpt>
      <trkpt lat="45.19754" lon="5.5131">
        <ele>1090.27</ele>
        <time>2012-10-21T13:06:23Z</time>
      </trkpt>
      <trkpt lat="45.19773" lon="5.5133">
        <ele>1087.39</ele>
        <time>2012-10-21T13:06:45Z</time>
      </trkpt>
      <trkpt lat="45.19774" lon="5.51331">
        <ele>1087.39</ele>
        <time>2012-10-21T13:06:46Z</time>
      </trkpt>
      <trkpt lat="45.19779" lon="5.51336">
        <ele>1086.43</ele>
        <time>2012-10-21T13:06:50Z</time>
      </trkpt>
      <trkpt lat="45.19793" lon="5.51346">
        <ele>1081.62</ele>
        <time>2012-10-21T13:07:05Z</time>
      </trkpt>
      <trkpt lat="45.19808" lon="5.51364">
        <ele>1075.37</ele>
        <time>2012-10-21T13:07:24Z</time>
      </trkpt>
      <trkpt lat="45.19823" lon="5.51386">
        <ele>1075.85</ele>
        <time>2012-10-21T13:07:44Z</time>
      </trkpt>
      <trkpt lat="45.19833" lon="5.51409">
        <ele>1078.74</ele>
        <time>2012-10-21T13:08:00Z</time>
      </trkpt>
      <trkpt lat="45.19835" lon="5.51421">
        <ele>1080.18</ele>
        <time>2012-10-21T13:08:08Z</time>
      </trkpt>
      <trkpt lat="45.19834" lon="5.51428">
        <ele>1081.14</ele>
        <time>2012-10-21T13:08:12Z</time>
      </trkpt>
      <trkpt lat="45.19824" lon="5.51448">
        <ele>1083.54</ele>
        <time>2012-10-21T13:08:27Z</time>
      </trkpt>
      <trkpt lat="45.19819" lon="5.51469">
        <ele>1085.95</ele>
        <time>2012-10-21T13:08:43Z</time>
      </trkpt>
      <trkpt lat="45.19822" lon="5.51478">
        <ele>1087.87</ele>
        <time>2012-10-21T13:09:03Z</time>
      </trkpt>
      <trkpt lat="45.19831" lon="5.51483">
        <ele>1087.39</ele>
        <time>2012-10-21T13:09:23Z</time>
      </trkpt>
      <trkpt lat="45.19848" lon="5.5149">
        <ele>1083.54</ele>
        <time>2012-10-21T13:09:45Z</time>
      </trkpt>
      <trkpt lat="45.19861" lon="5.51494">
        <ele>1077.29</ele>
        <time>2012-10-21T13:10:10Z</time>
      </trkpt>
      <trkpt lat="45.19867" lon="5.51497">
        <ele>1076.81</ele>
        <time>2012-10-21T13:10:15Z</time>
      </trkpt>
      <trkpt lat="45.19897" lon="5.51499">
        <ele>1078.74</ele>
        <time>2012-10-21T13:10:39Z</time>
      </trkpt>
      <trkpt lat="45.19926" lon="5.515">
        <ele>1085.47</ele>
        <time>2012-10-21T13:11:08Z</time>
      </trkpt>
      <trkpt lat="45.19959" lon="5.51508">
        <ele>1090.75</ele>
        <time>2012-10-21T13:11:31Z</time>
      </trkpt>
      <trkpt lat="45.19978" lon="5.51508">
        <ele>1097.48</ele>
        <time>2012-10-21T13:11:53Z</time>
      </trkpt>
      <trkpt lat="45.20003" lon="5.5152">
        <ele>1091.71</ele>
        <time>2012-10-21T13:12:15Z</time>
      </trkpt>
      <trkpt lat="45.20017" lon="5.5153">
        <ele>1092.2</ele>
        <time>2012-10-21T13:12:30Z</time>
      </trkpt>
      <trkpt lat="45.2002" lon="5.5153">
        <ele>1091.23</ele>
        <time>2012-10-21T13:12:32Z</time>
      </trkpt>
      <trkpt lat="45.20041" lon="5.51549">
        <ele>1091.71</ele>
        <time>2012-10-21T13:12:54Z</time>
      </trkpt>
      <trkpt lat="45.20062" lon="5.51562">
        <ele>1093.64</ele>
        <time>2012-10-21T13:13:15Z</time>
      </trkpt>
      <trkpt lat="45.20077" lon="5.51562">
        <ele>1092.68</ele>
        <time>2012-10-21T13:13:43Z</time>
      </trkpt>
      <trkpt lat="45.20084" lon="5.51582">
        <ele>1089.79</ele>
        <time>2012-10-21T13:14:15Z</time>
      </trkpt>
      <trkpt lat="45.20091" lon="5.51591">
        <ele>1085.47</ele>
        <time>2012-10-21T13:14:33Z</time>
      </trkpt>
      <trkpt lat="45.20108" lon="5.516">
        <ele>1085.95</ele>
        <time>2012-10-21T13:14:49Z</time>
      </trkpt>
      <trkpt lat="45.20111" lon="5.51603">
        <ele>1085.47</ele>
        <time>2012-10-21T13:14:51Z</time>
      </trkpt>
      <trkpt lat="45.20132" lon="5.51615">
        <ele>1083.54</ele>
        <time>2012-10-21T13:15:12Z</time>
      </trkpt>
      <trkpt lat="45.20154" lon="5.51625">
        <ele>1078.26</ele>
        <time>2012-10-21T13:15:37Z</time>
      </trkpt>
      <trkpt lat="45.20174" lon="5.51641">
        <ele>1080.18</ele>
        <time>2012-10-21T13:15:57Z</time>
      </trkpt>
      <trkpt lat="45.20191" lon="5.5165">
        <ele>1070.08</ele>
        <time>2012-10-21T13:16:16Z</time>
      </trkpt>
      <trkpt lat="45.20188" lon="5.51647">
        <ele>1069.12</ele>
        <time>2012-10-21T13:16:47Z</time>
      </trkpt>
      <trkpt lat="45.20187" lon="5.51644">
        <ele>1066.24</ele>
        <time>2012-10-21T13:16:56Z</time>
      </trkpt>
      <trkpt lat="45.202" lon="5.51665">
        <ele>1072.97</ele>
        <time>2012-10-21T13:17:17Z</time>
      </trkpt>
      <trkpt lat="45.20201" lon="5.51668">
        <ele>1074.41</ele>
        <time>2012-10-21T13:17:21Z</time>
      </trkpt>
      <trkpt lat="45.20208" lon="5.51669">
        <ele>1073.45</ele>
        <time>2012-10-21T13:17:28Z</time>
      </trkpt>
      <trkpt lat="45.20226" lon="5.51682">
        <ele>1073.93</ele>
        <time>2012-10-21T13:17:48Z</time>
      </trkpt>
      <trkpt lat="45.20232" lon="5.51688">
        <ele>1074.41</ele>
        <time>2012-10-21T13:17:55Z</time>
      </trkpt>
      <trkpt lat="45.20252" lon="5.51702">
        <ele>1073.45</ele>
        <time>2012-10-21T13:18:15Z</time>
      </trkpt>
      <trkpt lat="45.20272" lon="5.51709">
        <ele>1068.64</ele>
        <time>2012-10-21T13:18:35Z</time>
      </trkpt>
      <trkpt lat="45.20274" lon="5.5171">
        <ele>1068.64</ele>
        <time>2012-10-21T13:18:38Z</time>
      </trkpt>
      <trkpt lat="45.20298" lon="5.51727">
        <ele>1075.37</ele>
        <time>2012-10-21T13:18:57Z</time>
      </trkpt>
      <trkpt lat="45.20319" lon="5.51738">
        <ele>1076.33</ele>
        <time>2012-10-21T13:19:18Z</time>
      </trkpt>
      <trkpt lat="45.20341" lon="5.51758">
        <ele>1076.81</ele>
        <time>2012-10-21T13:19:40Z</time>
      </trkpt>
      <trkpt lat="45.20352" lon="5.51772">
        <ele>1078.74</ele>
        <time>2012-10-21T13:19:59Z</time>
      </trkpt>
      <trkpt lat="45.20376" lon="5.51785">
        <ele>1081.14</ele>
        <time>2012-10-21T13:20:21Z</time>
      </trkpt>
      <trkpt lat="45.204" lon="5.51801">
        <ele>1082.1</ele>
        <time>2012-10-21T13:20:43Z</time>
      </trkpt>
      <trkpt lat="45.20421" lon="5.51814">
        <ele>1085.95</ele>
        <time>2012-10-21T13:21:04Z</time>
      </trkpt>
      <trkpt lat="45.20444" lon="5.51831">
        <ele>1088.35</ele>
        <time>2012-10-21T13:21:28Z</time>
      </trkpt>
      <trkpt lat="45.20467" lon="5.51845">
        <ele>1090.27</ele>
        <time>2012-10-21T13:21:52Z</time>
      </trkpt>
      <trkpt lat="45.20467" lon="5.51848">
        <ele>1097.48</ele>
        <time>2012-10-21T13:22:19Z</time>
      </trkpt>
      <trkpt lat="45.2047" lon="5.51855">
        <ele>1097</ele>
        <time>2012-10-21T13:22:40Z</time>
      </trkpt>
      <trkpt lat="45.20474" lon="5.51862">
        <ele>1097</ele>
        <time>2012-10-21T13:22:44Z</time>
      </trkpt>
      <trkpt lat="45.20477" lon="5.51868">
        <ele>1096.52</ele>
        <time>2012-10-21T13:22:48Z</time>
      </trkpt>
      <trkpt lat="45.20481" lon="5.51883">
        <ele>1096.04</ele>
        <time>2012-10-21T13:22:58Z</time>
      </trkpt>
      <trkpt lat="45.20481" lon="5.51895">
        <ele>1094.6</ele>
        <time>2012-10-21T13:23:19Z</time>
      </trkpt>
      <trkpt lat="45.20476" lon="5.5187">
        <ele>1094.6</ele>
        <time>2012-10-21T13:23:35Z</time>
      </trkpt>
      <trkpt lat="45.20478" lon="5.51862">
        <ele>1094.12</ele>
        <time>2012-10-21T13:23:39Z</time>
      </trkpt>
      <trkpt lat="45.20494" lon="5.51836">
        <ele>1092.68</ele>
        <time>2012-10-21T13:24:01Z</time>
      </trkpt>
      <trkpt lat="45.20494" lon="5.51851">
        <ele>1097</ele>
        <time>2012-10-21T13:24:27Z</time>
      </trkpt>
      <trkpt lat="45.20489" lon="5.51829">
        <ele>1099.4</ele>
        <time>2012-10-21T13:24:36Z</time>
      </trkpt>
      <trkpt lat="45.20487" lon="5.51792">
        <ele>1098.44</ele>
        <time>2012-10-21T13:24:57Z</time>
      </trkpt>
      <trkpt lat="45.20475" lon="5.51762">
        <ele>1103.25</ele>
        <time>2012-10-21T13:25:19Z</time>
      </trkpt>
      <trkpt lat="45.20471" lon="5.51756">
        <ele>1103.73</ele>
        <time>2012-10-21T13:25:23Z</time>
      </trkpt>
      <trkpt lat="45.20457" lon="5.51732">
        <ele>1103.73</ele>
        <time>2012-10-21T13:25:44Z</time>
      </trkpt>
      <trkpt lat="45.20436" lon="5.51742">
        <ele>1106.61</ele>
        <time>2012-10-21T13:26:08Z</time>
      </trkpt>
      <trkpt lat="45.20439" lon="5.51734">
        <ele>1109.5</ele>
        <time>2012-10-21T13:26:32Z</time>
      </trkpt>
      <trkpt lat="45.20448" lon="5.51728">
        <ele>1111.9</ele>
        <time>2012-10-21T13:27:06Z</time>
      </trkpt>
      <trkpt lat="45.20456" lon="5.51728">
        <ele>1113.82</ele>
        <time>2012-10-21T13:27:49Z</time>
      </trkpt>
      <trkpt lat="45.20463" lon="5.51731">
        <ele>1121.03</ele>
        <time>2012-10-21T13:28:37Z</time>
      </trkpt>
      <trkpt lat="45.20461" lon="5.5173">
        <ele>1118.63</ele>
        <time>2012-10-21T13:29:01Z</time>
      </trkpt>
      <trkpt lat="45.20448" lon="5.5173">
        <ele>1110.94</ele>
        <time>2012-10-21T13:29:39Z</time>
      </trkpt>
      <trkpt lat="45.20453" lon="5.51726">
        <ele>1109.02</ele>
        <time>2012-10-21T13:30:08Z</time>
      </trkpt>
      <trkpt lat="45.2045" lon="5.51726">
        <ele>1105.65</ele>
        <time>2012-10-21T13:30:37Z</time>
      </trkpt>
      <trkpt lat="45.2045" lon="5.5173">
        <ele>1106.13</ele>
        <time>2012-10-21T13:31:07Z</time>
      </trkpt>
      <trkpt lat="45.20455" lon="5.51733">
        <ele>1105.65</ele>
        <time>2012-10-21T13:31:38Z</time>
      </trkpt>
      <trkpt lat="45.20455" lon="5.51722">
        <ele>1101.81</ele>
        <time>2012-10-21T13:32:01Z</time>
      </trkpt>
      <trkpt lat="45.20452" lon="5.51693">
        <ele>1102.77</ele>
        <time>2012-10-21T13:32:32Z</time>
      </trkpt>
      <trkpt lat="45.20459" lon="5.51695">
        <ele>1102.77</ele>
        <time>2012-10-21T13:32:56Z</time>
      </trkpt>
      <trkpt lat="45.20459" lon="5.51697">
        <ele>1101.33</ele>
        <time>2012-10-21T13:33:36Z</time>
      </trkpt>
      <trkpt lat="45.20455" lon="5.51698">
        <ele>1101.33</ele>
        <time>2012-10-21T13:34:13Z</time>
      </trkpt>
      <trkpt lat="45.20455" lon="5.51697">
        <ele>1103.73</ele>
        <time>2012-10-21T13:34:38Z</time>
      </trkpt>
      <trkpt lat="45.20456" lon="5.51697">
        <ele>1099.89</ele>
        <time>2012-10-21T13:35:14Z</time>
      </trkpt>
      <trkpt lat="45.20455" lon="5.51698">
        <ele>1097.96</ele>
        <time>2012-10-21T13:35:48Z</time>
      </trkpt>
      <trkpt lat="45.20454" lon="5.51696">
        <ele>1099.89</ele>
        <time>2012-10-21T13:36:18Z</time>
      </trkpt>
      <trkpt lat="45.20449" lon="5.51691">
        <ele>1103.73</ele>
        <time>2012-10-21T13:36:54Z</time>
      </trkpt>
      <trkpt lat="45.20455" lon="5.5169">
        <ele>1109.02</ele>
        <time>2012-10-21T13:37:23Z</time>
      </trkpt>
      <trkpt lat="45.20449" lon="5.51698">
        <ele>1107.1</ele>
        <time>2012-10-21T13:37:59Z</time>
      </trkpt>
      <trkpt lat="45.20459" lon="5.51721">
        <ele>1097.48</ele>
        <time>2012-10-21T13:38:21Z</time>
      </trkpt>
      <trkpt lat="45.20462" lon="5.51728">
        <ele>1097</ele>
        <time>2012-10-21T13:38:25Z</time>
      </trkpt>
      <trkpt lat="45.20471" lon="5.51755">
        <ele>1099.4</ele>
        <time>2012-10-21T13:38:44Z</time>
      </trkpt>
      <trkpt lat="45.20485" lon="5.51788">
        <ele>1099.89</ele>
        <time>2012-10-21T13:39:07Z</time>
      </trkpt>
      <trkpt lat="45.2049" lon="5.51799">
        <ele>1100.85</ele>
        <time>2012-10-21T13:39:16Z</time>
      </trkpt>
      <trkpt lat="45.20489" lon="5.51835">
        <ele>1095.08</ele>
        <time>2012-10-21T13:39:40Z</time>
      </trkpt>
      <trkpt lat="45.20477" lon="5.51857">
        <ele>1095.56</ele>
        <time>2012-10-21T13:39:59Z</time>
      </trkpt>
      <trkpt lat="45.20473" lon="5.51858">
        <ele>1095.08</ele>
        <time>2012-10-21T13:40:02Z</time>
      </trkpt>
      <trkpt lat="45.20462" lon="5.51852">
        <ele>1095.08</ele>
        <time>2012-10-21T13:40:19Z</time>
      </trkpt>
      <trkpt lat="45.20463" lon="5.51855">
        <ele>1093.64</ele>
        <time>2012-10-21T13:40:38Z</time>
      </trkpt>
      <trkpt lat="45.20465" lon="5.51848">
        <ele>1097.96</ele>
        <time>2012-10-21T13:41:04Z</time>
      </trkpt>
      <trkpt lat="45.20465" lon="5.5185">
        <ele>1097.96</ele>
        <time>2012-10-21T13:41:34Z</time>
      </trkpt>
      <trkpt lat="45.20467" lon="5.51852">
        <ele>1094.12</ele>
        <time>2012-10-21T13:42:07Z</time>
      </trkpt>
      <trkpt lat="45.20469" lon="5.51853">
        <ele>1098.92</ele>
        <time>2012-10-21T13:42:34Z</time>
      </trkpt>
      <trkpt lat="45.20469" lon="5.51845">
        <ele>1094.12</ele>
        <time>2012-10-21T13:43:03Z</time>
      </trkpt>
      <trkpt lat="45.20467" lon="5.51855">
        <ele>1093.64</ele>
        <time>2012-10-21T13:43:26Z</time>
      </trkpt>
      <trkpt lat="45.20463" lon="5.51847">
        <ele>1092.2</ele>
        <time>2012-10-21T13:43:41Z</time>
      </trkpt>
      <trkpt lat="45.20461" lon="5.51846">
        <ele>1097.96</ele>
        <time>2012-10-21T13:44:00Z</time>
      </trkpt>
      <trkpt lat="45.20461" lon="5.51844">
        <ele>1104.69</ele>
        <time>2012-10-21T13:44:41Z</time>
      </trkpt>
      <trkpt lat="45.20462" lon="5.51849">
        <ele>1107.1</ele>
        <time>2012-10-21T13:45:18Z</time>
      </trkpt>
      <trkpt lat="45.20464" lon="5.51852">
        <ele>1104.69</ele>
        <time>2012-10-21T13:45:54Z</time>
      </trkpt>
      <trkpt lat="45.20461" lon="5.51848">
        <ele>1103.73</ele>
        <time>2012-10-21T13:46:38Z</time>
      </trkpt>
      <trkpt lat="45.2046" lon="5.51847">
        <ele>1100.85</ele>
        <time>2012-10-21T13:47:15Z</time>
      </trkpt>
      <trkpt lat="45.20459" lon="5.51847">
        <ele>1099.4</ele>
        <time>2012-10-21T13:48:02Z</time>
      </trkpt>
      <trkpt lat="45.20468" lon="5.51852">
        <ele>1101.81</ele>
        <time>2012-10-21T13:48:43Z</time>
      </trkpt>
      <trkpt lat="45.20464" lon="5.51848">
        <ele>1106.13</ele>
        <time>2012-10-21T13:49:24Z</time>
      </trkpt>
      <trkpt lat="45.20463" lon="5.51846">
        <ele>1108.06</ele>
        <time>2012-10-21T13:49:56Z</time>
      </trkpt>
      <trkpt lat="45.2046" lon="5.51854">
        <ele>1117.67</ele>
        <time>2012-10-21T13:50:39Z</time>
      </trkpt>
      <trkpt lat="45.20459" lon="5.5185">
        <ele>1123.44</ele>
        <time>2012-10-21T13:51:12Z</time>
      </trkpt>
      <trkpt lat="45.20463" lon="5.51854">
        <ele>1120.07</ele>
        <time>2012-10-21T13:51:53Z</time>
      </trkpt>
      <trkpt lat="45.20465" lon="5.51849">
        <ele>1113.34</ele>
        <time>2012-10-21T13:52:24Z</time>
      </trkpt>
      <trkpt lat="45.20456" lon="5.51848">
        <ele>1112.38</ele>
        <time>2012-10-21T13:52:40Z</time>
      </trkpt>
      <trkpt lat="45.20451" lon="5.51846">
        <ele>1113.34</ele>
        <time>2012-10-21T13:52:48Z</time>
      </trkpt>
      <trkpt lat="45.20446" lon="5.51843">
        <ele>1113.82</ele>
        <time>2012-10-21T13:52:53Z</time>
      </trkpt>
      <trkpt lat="45.2044" lon="5.51839">
        <ele>1114.31</ele>
        <time>2012-10-21T13:52:58Z</time>
      </trkpt>
      <trkpt lat="45.20428" lon="5.51827">
        <ele>1111.42</ele>
        <time>2012-10-21T13:53:12Z</time>
      </trkpt>
      <trkpt lat="45.20407" lon="5.51818">
        <ele>1110.46</ele>
        <time>2012-10-21T13:53:30Z</time>
      </trkpt>
      <trkpt lat="45.20402" lon="5.51816">
        <ele>1104.69</ele>
        <time>2012-10-21T13:53:38Z</time>
      </trkpt>
      <trkpt lat="45.20383" lon="5.51799">
        <ele>1097.48</ele>
        <time>2012-10-21T13:54:03Z</time>
      </trkpt>
      <trkpt lat="45.2037" lon="5.51791">
        <ele>1094.12</ele>
        <time>2012-10-21T13:54:28Z</time>
      </trkpt>
      <trkpt lat="45.20339" lon="5.51776">
        <ele>1089.31</ele>
        <time>2012-10-21T13:54:54Z</time>
      </trkpt>
      <trkpt lat="45.20321" lon="5.51759">
        <ele>1086.91</ele>
        <time>2012-10-21T13:55:13Z</time>
      </trkpt>
      <trkpt lat="45.20298" lon="5.51736">
        <ele>1086.43</ele>
        <time>2012-10-21T13:55:34Z</time>
      </trkpt>
      <trkpt lat="45.20275" lon="5.51719">
        <ele>1084.99</ele>
        <time>2012-10-21T13:55:56Z</time>
      </trkpt>
      <trkpt lat="45.20249" lon="5.51706">
        <ele>1083.06</ele>
        <time>2012-10-21T13:56:20Z</time>
      </trkpt>
      <trkpt lat="45.20223" lon="5.51687">
        <ele>1080.66</ele>
        <time>2012-10-21T13:56:43Z</time>
      </trkpt>
      <trkpt lat="45.20199" lon="5.51673">
        <ele>1081.62</ele>
        <time>2012-10-21T13:57:07Z</time>
      </trkpt>
      <trkpt lat="45.20182" lon="5.51656">
        <ele>1079.22</ele>
        <time>2012-10-21T13:57:25Z</time>
      </trkpt>
      <trkpt lat="45.20156" lon="5.51644">
        <ele>1079.22</ele>
        <time>2012-10-21T13:57:47Z</time>
      </trkpt>
      <trkpt lat="45.20153" lon="5.51643">
        <ele>1079.22</ele>
        <time>2012-10-21T13:57:49Z</time>
      </trkpt>
      <trkpt lat="45.20152" lon="5.51642">
        <ele>1079.7</ele>
        <time>2012-10-21T13:57:50Z</time>
      </trkpt>
      <trkpt lat="45.20126" lon="5.51622">
        <ele>1085.95</ele>
        <time>2012-10-21T13:58:13Z</time>
      </trkpt>
      <trkpt lat="45.20106" lon="5.51603">
        <ele>1087.39</ele>
        <time>2012-10-21T13:58:38Z</time>
      </trkpt>
      <trkpt lat="45.20069" lon="5.51581">
        <ele>1085.47</ele>
        <time>2012-10-21T13:59:04Z</time>
      </trkpt>
      <trkpt lat="45.2004" lon="5.51574">
        <ele>1090.27</ele>
        <time>2012-10-21T13:59:32Z</time>
      </trkpt>
      <trkpt lat="45.2002" lon="5.51556">
        <ele>1087.87</ele>
        <time>2012-10-21T13:59:53Z</time>
      </trkpt>
      <trkpt lat="45.20001" lon="5.51528">
        <ele>1088.83</ele>
        <time>2012-10-21T14:00:16Z</time>
      </trkpt>
      <trkpt lat="45.19984" lon="5.51507">
        <ele>1090.27</ele>
        <time>2012-10-21T14:00:39Z</time>
      </trkpt>
      <trkpt lat="45.19953" lon="5.51505">
        <ele>1091.23</ele>
        <time>2012-10-21T14:01:02Z</time>
      </trkpt>
      <trkpt lat="45.19937" lon="5.51502">
        <ele>1088.83</ele>
        <time>2012-10-21T14:01:15Z</time>
      </trkpt>
      <trkpt lat="45.1991" lon="5.51497">
        <ele>1088.83</ele>
        <time>2012-10-21T14:01:36Z</time>
      </trkpt>
      <trkpt lat="45.19908" lon="5.51496">
        <ele>1088.83</ele>
        <time>2012-10-21T14:01:37Z</time>
      </trkpt>
      <trkpt lat="45.19885" lon="5.515">
        <ele>1088.83</ele>
        <time>2012-10-21T14:01:54Z</time>
      </trkpt>
      <trkpt lat="45.19864" lon="5.51495">
        <ele>1085.95</ele>
        <time>2012-10-21T14:02:12Z</time>
      </trkpt>
      <trkpt lat="45.19863" lon="5.51495">
        <ele>1085.95</ele>
        <time>2012-10-21T14:02:13Z</time>
      </trkpt>
      <trkpt lat="45.19862" lon="5.51495">
        <ele>1085.47</ele>
        <time>2012-10-21T14:02:14Z</time>
      </trkpt>
      <trkpt lat="45.1986" lon="5.51495">
        <ele>1084.99</ele>
        <time>2012-10-21T14:02:15Z</time>
      </trkpt>
      <trkpt lat="45.19859" lon="5.51495">
        <ele>1084.99</ele>
        <time>2012-10-21T14:02:16Z</time>
      </trkpt>
      <trkpt lat="45.19857" lon="5.51494">
        <ele>1084.5</ele>
        <time>2012-10-21T14:02:17Z</time>
      </trkpt>
      <trkpt lat="45.19856" lon="5.51494">
        <ele>1084.5</ele>
        <time>2012-10-21T14:02:18Z</time>
      </trkpt>
      <trkpt lat="45.19849" lon="5.51489">
        <ele>1083.54</ele>
        <time>2012-10-21T14:02:28Z</time>
      </trkpt>
      <trkpt lat="45.19848" lon="5.51488">
        <ele>1084.02</ele>
        <time>2012-10-21T14:02:29Z</time>
      </trkpt>
      <trkpt lat="45.19838" lon="5.51485">
        <ele>1088.83</ele>
        <time>2012-10-21T14:02:38Z</time>
      </trkpt>
      <trkpt lat="45.19836" lon="5.51485">
        <ele>1088.83</ele>
        <time>2012-10-21T14:02:39Z</time>
      </trkpt>
      <trkpt lat="45.19834" lon="5.51484">
        <ele>1089.31</ele>
        <time>2012-10-21T14:02:40Z</time>
      </trkpt>
      <trkpt lat="45.19826" lon="5.51475">
        <ele>1090.75</ele>
        <time>2012-10-21T14:02:51Z</time>
      </trkpt>
      <trkpt lat="45.19825" lon="5.51473">
        <ele>1090.75</ele>
        <time>2012-10-21T14:02:52Z</time>
      </trkpt>
      <trkpt lat="45.19821" lon="5.5146">
        <ele>1092.68</ele>
        <time>2012-10-21T14:02:58Z</time>
      </trkpt>
      <trkpt lat="45.19824" lon="5.51449">
        <ele>1090.75</ele>
        <time>2012-10-21T14:03:11Z</time>
      </trkpt>
      <trkpt lat="45.19829" lon="5.51447">
        <ele>1095.56</ele>
        <time>2012-10-21T14:03:26Z</time>
      </trkpt>
      <trkpt lat="45.1983" lon="5.51442">
        <ele>1097</ele>
        <time>2012-10-21T14:03:30Z</time>
      </trkpt>
      <trkpt lat="45.19827" lon="5.51419">
        <ele>1097</ele>
        <time>2012-10-21T14:03:44Z</time>
      </trkpt>
      <trkpt lat="45.19809" lon="5.51386">
        <ele>1094.6</ele>
        <time>2012-10-21T14:03:58Z</time>
      </trkpt>
      <trkpt lat="45.19795" lon="5.51367">
        <ele>1103.73</ele>
        <time>2012-10-21T14:04:12Z</time>
      </trkpt>
      <trkpt lat="45.198" lon="5.51366">
        <ele>1103.25</ele>
        <time>2012-10-21T14:04:23Z</time>
      </trkpt>
      <trkpt lat="45.19799" lon="5.51365">
        <ele>1103.25</ele>
        <time>2012-10-21T14:04:24Z</time>
      </trkpt>
      <trkpt lat="45.19784" lon="5.51352">
        <ele>1102.29</ele>
        <time>2012-10-21T14:04:35Z</time>
      </trkpt>
      <trkpt lat="45.1976" lon="5.51325">
        <ele>1103.25</ele>
        <time>2012-10-21T14:04:50Z</time>
      </trkpt>
      <trkpt lat="45.19754" lon="5.51312">
        <ele>1097.96</ele>
        <time>2012-10-21T14:05:09Z</time>
      </trkpt>
      <trkpt lat="45.19753" lon="5.51311">
        <ele>1097.96</ele>
        <time>2012-10-21T14:05:10Z</time>
      </trkpt>
      <trkpt lat="45.19751" lon="5.5131">
        <ele>1098.44</ele>
        <time>2012-10-21T14:05:11Z</time>
      </trkpt>
      <trkpt lat="45.19727" lon="5.51289">
        <ele>1092.2</ele>
        <time>2012-10-21T14:05:31Z</time>
      </trkpt>
      <trkpt lat="45.19713" lon="5.5128">
        <ele>1090.75</ele>
        <time>2012-10-21T14:05:46Z</time>
      </trkpt>
      <trkpt lat="45.19694" lon="5.51256">
        <ele>1089.79</ele>
        <time>2012-10-21T14:06:04Z</time>
      </trkpt>
      <trkpt lat="45.19679" lon="5.51241">
        <ele>1088.35</ele>
        <time>2012-10-21T14:06:21Z</time>
      </trkpt>
      <trkpt lat="45.19665" lon="5.51234">
        <ele>1085.95</ele>
        <time>2012-10-21T14:06:28Z</time>
      </trkpt>
      <trkpt lat="45.19662" lon="5.51233">
        <ele>1084.02</ele>
        <time>2012-10-21T14:06:30Z</time>
      </trkpt>
      <trkpt lat="45.19654" lon="5.51224">
        <ele>1082.58</ele>
        <time>2012-10-21T14:06:45Z</time>
      </trkpt>
      <trkpt lat="45.19652" lon="5.51224">
        <ele>1082.58</ele>
        <time>2012-10-21T14:06:46Z</time>
      </trkpt>
      <trkpt lat="45.1965" lon="5.51223">
        <ele>1082.1</ele>
        <time>2012-10-21T14:06:47Z</time>
      </trkpt>
      <trkpt lat="45.19647" lon="5.51222">
        <ele>1081.62</ele>
        <time>2012-10-21T14:06:48Z</time>
      </trkpt>
      <trkpt lat="45.19645" lon="5.51222">
        <ele>1082.1</ele>
        <time>2012-10-21T14:06:49Z</time>
      </trkpt>
      <trkpt lat="45.19643" lon="5.51221">
        <ele>1082.58</ele>
        <time>2012-10-21T14:06:50Z</time>
      </trkpt>
      <trkpt lat="45.19642" lon="5.51215">
        <ele>1083.06</ele>
        <time>2012-10-21T14:07:00Z</time>
      </trkpt>
      <trkpt lat="45.1964" lon="5.51213">
        <ele>1083.06</ele>
        <time>2012-10-21T14:07:02Z</time>
      </trkpt>
      <trkpt lat="45.19637" lon="5.51209">
        <ele>1082.58</ele>
        <time>2012-10-21T14:07:04Z</time>
      </trkpt>
      <trkpt lat="45.19636" lon="5.51207">
        <ele>1082.58</ele>
        <time>2012-10-21T14:07:05Z</time>
      </trkpt>
      <trkpt lat="45.19623" lon="5.51207">
        <ele>1078.74</ele>
        <time>2012-10-21T14:07:25Z</time>
      </trkpt>
      <trkpt lat="45.19623" lon="5.51206">
        <ele>1078.26</ele>
        <time>2012-10-21T14:07:34Z</time>
      </trkpt>
      <trkpt lat="45.19611" lon="5.51184">
        <ele>1076.81</ele>
        <time>2012-10-21T14:07:45Z</time>
      </trkpt>
      <trkpt lat="45.19607" lon="5.51176">
        <ele>1070.08</ele>
        <time>2012-10-21T14:07:49Z</time>
      </trkpt>
      <trkpt lat="45.19602" lon="5.51169">
        <ele>1066.72</ele>
        <time>2012-10-21T14:07:54Z</time>
      </trkpt>
      <trkpt lat="45.19601" lon="5.51169">
        <ele>1066.24</ele>
        <time>2012-10-21T14:07:55Z</time>
      </trkpt>
      <trkpt lat="45.196" lon="5.51168">
        <ele>1065.76</ele>
        <time>2012-10-21T14:07:56Z</time>
      </trkpt>
      <trkpt lat="45.19598" lon="5.51167">
        <ele>1065.76</ele>
        <time>2012-10-21T14:07:57Z</time>
      </trkpt>
      <trkpt lat="45.19597" lon="5.51167">
        <ele>1065.76</ele>
        <time>2012-10-21T14:07:58Z</time>
      </trkpt>
      <trkpt lat="45.19595" lon="5.51168">
        <ele>1065.28</ele>
        <time>2012-10-21T14:07:59Z</time>
      </trkpt>
      <trkpt lat="45.19582" lon="5.5115">
        <ele>1059.99</ele>
        <time>2012-10-21T14:08:14Z</time>
      </trkpt>
      <trkpt lat="45.19571" lon="5.51142">
        <ele>1056.15</ele>
        <time>2012-10-21T14:08:30Z</time>
      </trkpt>
      <trkpt lat="45.1957" lon="5.51141">
        <ele>1055.67</ele>
        <time>2012-10-21T14:08:31Z</time>
      </trkpt>
      <trkpt lat="45.19547" lon="5.51123">
        <ele>1053.74</ele>
        <time>2012-10-21T14:08:46Z</time>
      </trkpt>
      <trkpt lat="45.19533" lon="5.51106">
        <ele>1053.26</ele>
        <time>2012-10-21T14:09:03Z</time>
      </trkpt>
      <trkpt lat="45.19521" lon="5.51101">
        <ele>1049.9</ele>
        <time>2012-10-21T14:09:15Z</time>
      </trkpt>
      <trkpt lat="45.19507" lon="5.51091">
        <ele>1047.97</ele>
        <time>2012-10-21T14:09:30Z</time>
      </trkpt>
      <trkpt lat="45.19506" lon="5.51091">
        <ele>1047.49</ele>
        <time>2012-10-21T14:09:31Z</time>
      </trkpt>
      <trkpt lat="45.19498" lon="5.51089">
        <ele>1046.53</ele>
        <time>2012-10-21T14:09:36Z</time>
      </trkpt>
      <trkpt lat="45.19497" lon="5.51088">
        <ele>1046.05</ele>
        <time>2012-10-21T14:09:37Z</time>
      </trkpt>
      <trkpt lat="45.19491" lon="5.51078">
        <ele>1043.65</ele>
        <time>2012-10-21T14:09:48Z</time>
      </trkpt>
      <trkpt lat="45.19489" lon="5.51079">
        <ele>1043.65</ele>
        <time>2012-10-21T14:09:49Z</time>
      </trkpt>
      <trkpt lat="45.19487" lon="5.51078">
        <ele>1043.65</ele>
        <time>2012-10-21T14:09:50Z</time>
      </trkpt>
      <trkpt lat="45.19485" lon="5.51078">
        <ele>1044.13</ele>
        <time>2012-10-21T14:09:51Z</time>
      </trkpt>
      <trkpt lat="45.19483" lon="5.51078">
        <ele>1044.61</ele>
        <time>2012-10-21T14:09:52Z</time>
      </trkpt>
      <trkpt lat="45.19481" lon="5.51078">
        <ele>1044.61</ele>
        <time>2012-10-21T14:09:53Z</time>
      </trkpt>
      <trkpt lat="45.19478" lon="5.51078">
        <ele>1044.61</ele>
        <time>2012-10-21T14:09:54Z</time>
      </trkpt>
      <trkpt lat="45.19476" lon="5.51078">
        <ele>1044.61</ele>
        <time>2012-10-21T14:09:55Z</time>
      </trkpt>
      <trkpt lat="45.1947" lon="5.51069">
        <ele>1045.09</ele>
        <time>2012-10-21T14:10:04Z</time>
      </trkpt>
      <trkpt lat="45.19468" lon="5.51068">
        <ele>1045.09</ele>
        <time>2012-10-21T14:10:06Z</time>
      </trkpt>
      <trkpt lat="45.19466" lon="5.51067">
        <ele>1045.09</ele>
        <time>2012-10-21T14:10:07Z</time>
      </trkpt>
      <trkpt lat="45.19464" lon="5.51066">
        <ele>1044.61</ele>
        <time>2012-10-21T14:10:08Z</time>
      </trkpt>
      <trkpt lat="45.19458" lon="5.51056">
        <ele>1042.69</ele>
        <time>2012-10-21T14:10:17Z</time>
      </trkpt>
      <trkpt lat="45.19458" lon="5.51055">
        <ele>1042.69</ele>
        <time>2012-10-21T14:10:18Z</time>
      </trkpt>
      <trkpt lat="45.19454" lon="5.51051">
        <ele>1042.21</ele>
        <time>2012-10-21T14:10:24Z</time>
      </trkpt>
      <trkpt lat="45.19452" lon="5.51049">
        <ele>1042.21</ele>
        <time>2012-10-21T14:10:25Z</time>
      </trkpt>
      <trkpt lat="45.1945" lon="5.51049">
        <ele>1041.73</ele>
        <time>2012-10-21T14:10:26Z</time>
      </trkpt>
      <trkpt lat="45.19448" lon="5.5105">
        <ele>1041.73</ele>
        <time>2012-10-21T14:10:27Z</time>
      </trkpt>
      <trkpt lat="45.19447" lon="5.5105">
        <ele>1041.73</ele>
        <time>2012-10-21T14:10:28Z</time>
      </trkpt>
      <trkpt lat="45.19444" lon="5.51042">
        <ele>1041.73</ele>
        <time>2012-10-21T14:10:38Z</time>
      </trkpt>
      <trkpt lat="45.19423" lon="5.51025">
        <ele>1043.17</ele>
        <time>2012-10-21T14:10:58Z</time>
      </trkpt>
      <trkpt lat="45.19414" lon="5.51017">
        <ele>1040.76</ele>
        <time>2012-10-21T14:11:09Z</time>
      </trkpt>
      <trkpt lat="45.19397" lon="5.51003">
        <ele>1040.28</ele>
        <time>2012-10-21T14:11:29Z</time>
      </trkpt>
      <trkpt lat="45.19383" lon="5.50994">
        <ele>1039.8</ele>
        <time>2012-10-21T14:11:38Z</time>
      </trkpt>
      <trkpt lat="45.19382" lon="5.50993">
        <ele>1039.8</ele>
        <time>2012-10-21T14:11:39Z</time>
      </trkpt>
      <trkpt lat="45.19373" lon="5.50991">
        <ele>1041.73</ele>
        <time>2012-10-21T14:11:47Z</time>
      </trkpt>
      <trkpt lat="45.19366" lon="5.50981">
        <ele>1043.17</ele>
        <time>2012-10-21T14:11:59Z</time>
      </trkpt>
      <trkpt lat="45.19365" lon="5.50981">
        <ele>1042.69</ele>
        <time>2012-10-21T14:12:00Z</time>
      </trkpt>
      <trkpt lat="45.19363" lon="5.5098">
        <ele>1042.69</ele>
        <time>2012-10-21T14:12:01Z</time>
      </trkpt>
      <trkpt lat="45.19361" lon="5.5098">
        <ele>1042.69</ele>
        <time>2012-10-21T14:12:02Z</time>
      </trkpt>
      <trkpt lat="45.19359" lon="5.50979">
        <ele>1042.69</ele>
        <time>2012-10-21T14:12:03Z</time>
      </trkpt>
      <trkpt lat="45.19356" lon="5.50977">
        <ele>1042.69</ele>
        <time>2012-10-21T14:12:04Z</time>
      </trkpt>
      <trkpt lat="45.19352" lon="5.50975">
        <ele>1042.69</ele>
        <time>2012-10-21T14:12:06Z</time>
      </trkpt>
      <trkpt lat="45.19351" lon="5.50974">
        <ele>1042.69</ele>
        <time>2012-10-21T14:12:07Z</time>
      </trkpt>
      <trkpt lat="45.19342" lon="5.50964">
        <ele>1040.76</ele>
        <time>2012-10-21T14:12:20Z</time>
      </trkpt>
      <trkpt lat="45.1932" lon="5.50951">
        <ele>1038.36</ele>
        <time>2012-10-21T14:12:37Z</time>
      </trkpt>
      <trkpt lat="45.19303" lon="5.50944">
        <ele>1036.92</ele>
        <time>2012-10-21T14:12:54Z</time>
      </trkpt>
      <trkpt lat="45.19281" lon="5.50929">
        <ele>1033.55</ele>
        <time>2012-10-21T14:13:15Z</time>
      </trkpt>
      <trkpt lat="45.19259" lon="5.50915">
        <ele>1030.67</ele>
        <time>2012-10-21T14:13:34Z</time>
      </trkpt>
      <trkpt lat="45.19237" lon="5.50905">
        <ele>1031.15</ele>
        <time>2012-10-21T14:13:51Z</time>
      </trkpt>
      <trkpt lat="45.19216" lon="5.50889">
        <ele>1028.75</ele>
        <time>2012-10-21T14:14:11Z</time>
      </trkpt>
      <trkpt lat="45.192" lon="5.50884">
        <ele>1030.19</ele>
        <time>2012-10-21T14:14:30Z</time>
      </trkpt>
      <trkpt lat="45.19187" lon="5.50879">
        <ele>1031.63</ele>
        <time>2012-10-21T14:14:40Z</time>
      </trkpt>
      <trkpt lat="45.19186" lon="5.50877">
        <ele>1032.11</ele>
        <time>2012-10-21T14:14:41Z</time>
      </trkpt>
      <trkpt lat="45.19166" lon="5.50863">
        <ele>1031.15</ele>
        <time>2012-10-21T14:14:57Z</time>
      </trkpt>
      <trkpt lat="45.19162" lon="5.50856">
        <ele>1031.15</ele>
        <time>2012-10-21T14:15:06Z</time>
      </trkpt>
      <trkpt lat="45.19145" lon="5.50836">
        <ele>1028.75</ele>
        <time>2012-10-21T14:15:23Z</time>
      </trkpt>
      <trkpt lat="45.19135" lon="5.50825">
        <ele>1024.42</ele>
        <time>2012-10-21T14:15:35Z</time>
      </trkpt>
      <trkpt lat="45.19118" lon="5.50806">
        <ele>1026.83</ele>
        <time>2012-10-21T14:15:52Z</time>
      </trkpt>
      <trkpt lat="45.19093" lon="5.50787">
        <ele>1027.31</ele>
        <time>2012-10-21T14:16:14Z</time>
      </trkpt>
      <trkpt lat="45.19088" lon="5.50785">
        <ele>1027.79</ele>
        <time>2012-10-21T14:16:19Z</time>
      </trkpt>
      <trkpt lat="45.19068" lon="5.50775">
        <ele>1028.27</ele>
        <time>2012-10-21T14:16:38Z</time>
      </trkpt>
      <trkpt lat="45.1905" lon="5.50758">
        <ele>1030.19</ele>
        <time>2012-10-21T14:16:56Z</time>
      </trkpt>
      <trkpt lat="45.19049" lon="5.50756">
        <ele>1030.19</ele>
        <time>2012-10-21T14:16:57Z</time>
      </trkpt>
      <trkpt lat="45.19031" lon="5.50743">
        <ele>1029.23</ele>
        <time>2012-10-21T14:17:18Z</time>
      </trkpt>
      <trkpt lat="45.19004" lon="5.50724">
        <ele>1027.31</ele>
        <time>2012-10-21T14:17:42Z</time>
      </trkpt>
      <trkpt lat="45.1898" lon="5.50709">
        <ele>1032.11</ele>
        <time>2012-10-21T14:18:02Z</time>
      </trkpt>
      <trkpt lat="45.18966" lon="5.50701">
        <ele>1035.96</ele>
        <time>2012-10-21T14:18:19Z</time>
      </trkpt>
      <trkpt lat="45.18945" lon="5.50671">
        <ele>1025.86</ele>
        <time>2012-10-21T14:18:36Z</time>
      </trkpt>
      <trkpt lat="45.18929" lon="5.50664">
        <ele>1021.54</ele>
        <time>2012-10-21T14:18:51Z</time>
      </trkpt>
      <trkpt lat="45.18928" lon="5.50663">
        <ele>1021.54</ele>
        <time>2012-10-21T14:18:53Z</time>
      </trkpt>
      <trkpt lat="45.18921" lon="5.50655">
        <ele>1021.54</ele>
        <time>2012-10-21T14:19:08Z</time>
      </trkpt>
      <trkpt lat="45.18903" lon="5.50646">
        <ele>1020.58</ele>
        <time>2012-10-21T14:19:21Z</time>
      </trkpt>
      <trkpt lat="45.18892" lon="5.50632">
        <ele>1018.17</ele>
        <time>2012-10-21T14:19:40Z</time>
      </trkpt>
      <trkpt lat="45.18891" lon="5.50631">
        <ele>1017.21</ele>
        <time>2012-10-21T14:19:41Z</time>
      </trkpt>
      <trkpt lat="45.18873" lon="5.50605">
        <ele>1012.89</ele>
        <time>2012-10-21T14:19:59Z</time>
      </trkpt>
      <trkpt lat="45.18847" lon="5.50589">
        <ele>1013.37</ele>
        <time>2012-10-21T14:20:20Z</time>
      </trkpt>
      <trkpt lat="45.18826" lon="5.50581">
        <ele>1016.73</ele>
        <time>2012-10-21T14:20:39Z</time>
      </trkpt>
      <trkpt lat="45.18821" lon="5.50573">
        <ele>1017.21</ele>
        <time>2012-10-21T14:20:47Z</time>
      </trkpt>
      <trkpt lat="45.18819" lon="5.5057">
        <ele>1017.21</ele>
        <time>2012-10-21T14:20:48Z</time>
      </trkpt>
      <trkpt lat="45.18816" lon="5.50568">
        <ele>1017.69</ele>
        <time>2012-10-21T14:20:49Z</time>
      </trkpt>
      <trkpt lat="45.18814" lon="5.50568">
        <ele>1018.17</ele>
        <time>2012-10-21T14:20:50Z</time>
      </trkpt>
      <trkpt lat="45.18812" lon="5.50567">
        <ele>1018.17</ele>
        <time>2012-10-21T14:20:51Z</time>
      </trkpt>
      <trkpt lat="45.18799" lon="5.50544">
        <ele>1013.37</ele>
        <time>2012-10-21T14:21:09Z</time>
      </trkpt>
      <trkpt lat="45.18795" lon="5.50542">
        <ele>1013.85</ele>
        <time>2012-10-21T14:21:11Z</time>
      </trkpt>
      <trkpt lat="45.18772" lon="5.50523">
        <ele>1014.33</ele>
        <time>2012-10-21T14:21:31Z</time>
      </trkpt>
      <trkpt lat="45.18763" lon="5.50515">
        <ele>1017.69</ele>
        <time>2012-10-21T14:21:48Z</time>
      </trkpt>
      <trkpt lat="45.1876" lon="5.50512">
        <ele>1017.69</ele>
        <time>2012-10-21T14:21:51Z</time>
      </trkpt>
      <trkpt lat="45.18754" lon="5.50499">
        <ele>1016.73</ele>
        <time>2012-10-21T14:21:57Z</time>
      </trkpt>
      <trkpt lat="45.18753" lon="5.50497">
        <ele>1016.25</ele>
        <time>2012-10-21T14:21:58Z</time>
      </trkpt>
      <trkpt lat="45.18752" lon="5.50495">
        <ele>1016.25</ele>
        <time>2012-10-21T14:21:59Z</time>
      </trkpt>
      <trkpt lat="45.18751" lon="5.50492">
        <ele>1016.25</ele>
        <time>2012-10-21T14:22:00Z</time>
      </trkpt>
      <trkpt lat="45.1875" lon="5.50489">
        <ele>1015.77</ele>
        <time>2012-10-21T14:22:01Z</time>
      </trkpt>
      <trkpt lat="45.18749" lon="5.50487">
        <ele>1016.25</ele>
        <time>2012-10-21T14:22:02Z</time>
      </trkpt>
      <trkpt lat="45.18748" lon="5.50484">
        <ele>1016.25</ele>
        <time>2012-10-21T14:22:03Z</time>
      </trkpt>
      <trkpt lat="45.18733" lon="5.50465">
        <ele>1024.42</ele>
        <time>2012-10-21T14:22:16Z</time>
      </trkpt>
      <trkpt lat="45.1871" lon="5.5046">
        <ele>1035</ele>
        <time>2012-10-21T14:22:36Z</time>
      </trkpt>
      <trkpt lat="45.18701" lon="5.50443">
        <ele>1035.48</ele>
        <time>2012-10-21T14:22:49Z</time>
      </trkpt>
      <trkpt lat="45.18687" lon="5.5043">
        <ele>1036.44</ele>
        <time>2012-10-21T14:23:08Z</time>
      </trkpt>
      <trkpt lat="45.18668" lon="5.50406">
        <ele>1037.4</ele>
        <time>2012-10-21T14:23:24Z</time>
      </trkpt>
      <trkpt lat="45.18666" lon="5.50404">
        <ele>1036.44</ele>
        <time>2012-10-21T14:23:25Z</time>
      </trkpt>
      <trkpt lat="45.18664" lon="5.50403">
        <ele>1035.96</ele>
        <time>2012-10-21T14:23:26Z</time>
      </trkpt>
      <trkpt lat="45.18661" lon="5.50405">
        <ele>1035.96</ele>
        <time>2012-10-21T14:23:27Z</time>
      </trkpt>
      <trkpt lat="45.1866" lon="5.50405">
        <ele>1035.48</ele>
        <time>2012-10-21T14:23:28Z</time>
      </trkpt>
      <trkpt lat="45.18658" lon="5.50404">
        <ele>1035</ele>
        <time>2012-10-21T14:23:29Z</time>
      </trkpt>
      <trkpt lat="45.18644" lon="5.50399">
        <ele>1035</ele>
        <time>2012-10-21T14:23:48Z</time>
      </trkpt>
      <trkpt lat="45.1864" lon="5.50395">
        <ele>1034.52</ele>
        <time>2012-10-21T14:23:51Z</time>
      </trkpt>
      <trkpt lat="45.18639" lon="5.50393">
        <ele>1034.52</ele>
        <time>2012-10-21T14:23:52Z</time>
      </trkpt>
      <trkpt lat="45.18638" lon="5.50391">
        <ele>1034.52</ele>
        <time>2012-10-21T14:23:53Z</time>
      </trkpt>
      <trkpt lat="45.18636" lon="5.50389">
        <ele>1035</ele>
        <time>2012-10-21T14:23:54Z</time>
      </trkpt>
      <trkpt lat="45.18634" lon="5.50386">
        <ele>1034.52</ele>
        <time>2012-10-21T14:23:55Z</time>
      </trkpt>
      <trkpt lat="45.18633" lon="5.50384">
        <ele>1034.52</ele>
        <time>2012-10-21T14:23:56Z</time>
      </trkpt>
      <trkpt lat="45.18616" lon="5.50353">
        <ele>1021.06</ele>
        <time>2012-10-21T14:24:14Z</time>
      </trkpt>
      <trkpt lat="45.18611" lon="5.50338">
        <ele>1016.73</ele>
        <time>2012-10-21T14:24:24Z</time>
      </trkpt>
      <trkpt lat="45.18594" lon="5.50316">
        <ele>1009.52</ele>
        <time>2012-10-21T14:24:46Z</time>
      </trkpt>
      <trkpt lat="45.18587" lon="5.50305">
        <ele>1002.31</ele>
        <time>2012-10-21T14:25:15Z</time>
      </trkpt>
      <trkpt lat="45.18561" lon="5.50273">
        <ele>996.06</ele>
        <time>2012-10-21T14:25:40Z</time>
      </trkpt>
      <trkpt lat="45.18548" lon="5.50257">
        <ele>989.33</ele>
        <time>2012-10-21T14:25:59Z</time>
      </trkpt>
      <trkpt lat="45.18541" lon="5.50249">
        <ele>988.85</ele>
        <time>2012-10-21T14:26:09Z</time>
      </trkpt>
      <trkpt lat="45.1853" lon="5.50245">
        <ele>990.3</ele>
        <time>2012-10-21T14:26:16Z</time>
      </trkpt>
      <trkpt lat="45.18528" lon="5.50243">
        <ele>990.78</ele>
        <time>2012-10-21T14:26:18Z</time>
      </trkpt>
      <trkpt lat="45.18526" lon="5.50241">
        <ele>990.78</ele>
        <time>2012-10-21T14:26:19Z</time>
      </trkpt>
      <trkpt lat="45.18525" lon="5.5024">
        <ele>991.26</ele>
        <time>2012-10-21T14:26:20Z</time>
      </trkpt>
      <trkpt lat="45.18523" lon="5.50238">
        <ele>991.74</ele>
        <time>2012-10-21T14:26:21Z</time>
      </trkpt>
      <trkpt lat="45.18522" lon="5.50238">
        <ele>991.74</ele>
        <time>2012-10-21T14:26:22Z</time>
      </trkpt>
      <trkpt lat="45.18521" lon="5.50236">
        <ele>991.74</ele>
        <time>2012-10-21T14:26:23Z</time>
      </trkpt>
      <trkpt lat="45.18498" lon="5.5022">
        <ele>992.7</ele>
        <time>2012-10-21T14:26:41Z</time>
      </trkpt>
      <trkpt lat="45.18474" lon="5.50203">
        <ele>997.51</ele>
        <time>2012-10-21T14:27:03Z</time>
      </trkpt>
      <trkpt lat="45.18462" lon="5.50195">
        <ele>998.95</ele>
        <time>2012-10-21T14:27:13Z</time>
      </trkpt>
      <trkpt lat="45.18461" lon="5.50194">
        <ele>998.95</ele>
        <time>2012-10-21T14:27:14Z</time>
      </trkpt>
      <trkpt lat="45.18444" lon="5.50179">
        <ele>1000.39</ele>
        <time>2012-10-21T14:27:34Z</time>
      </trkpt>
      <trkpt lat="45.18427" lon="5.50167">
        <ele>1007.6</ele>
        <time>2012-10-21T14:27:52Z</time>
      </trkpt>
      <trkpt lat="45.18406" lon="5.50154">
        <ele>1005.68</ele>
        <time>2012-10-21T14:28:11Z</time>
      </trkpt>
      <trkpt lat="45.18378" lon="5.50139">
        <ele>1010.96</ele>
        <time>2012-10-21T14:28:34Z</time>
      </trkpt>
      <trkpt lat="45.1837" lon="5.50136">
        <ele>1011.93</ele>
        <time>2012-10-21T14:28:43Z</time>
      </trkpt>
      <trkpt lat="45.18344" lon="5.50125">
        <ele>1011.93</ele>
        <time>2012-10-21T14:29:04Z</time>
      </trkpt>
      <trkpt lat="45.18342" lon="5.50124">
        <ele>1011.93</ele>
        <time>2012-10-21T14:29:05Z</time>
      </trkpt>
      <trkpt lat="45.1834" lon="5.50124">
        <ele>1011.93</ele>
        <time>2012-10-21T14:29:06Z</time>
      </trkpt>
      <trkpt lat="45.18337" lon="5.50124">
        <ele>1011.93</ele>
        <time>2012-10-21T14:29:07Z</time>
      </trkpt>
      <trkpt lat="45.18335" lon="5.50124">
        <ele>1011.93</ele>
        <time>2012-10-21T14:29:08Z</time>
      </trkpt>
      <trkpt lat="45.18333" lon="5.50124">
        <ele>1011.93</ele>
        <time>2012-10-21T14:29:09Z</time>
      </trkpt>
      <trkpt lat="45.18332" lon="5.50124">
        <ele>1011.93</ele>
        <time>2012-10-21T14:29:10Z</time>
      </trkpt>
      <trkpt lat="45.1833" lon="5.50125">
        <ele>1011.93</ele>
        <time>2012-10-21T14:29:11Z</time>
      </trkpt>
      <trkpt lat="45.18321" lon="5.50125">
        <ele>1008.08</ele>
        <time>2012-10-21T14:29:31Z</time>
      </trkpt>
      <trkpt lat="45.18323" lon="5.50149">
        <ele>1005.2</ele>
        <time>2012-10-21T14:29:44Z</time>
      </trkpt>
      <trkpt lat="45.18314" lon="5.5018">
        <ele>1002.79</ele>
        <time>2012-10-21T14:30:03Z</time>
      </trkpt>
      <trkpt lat="45.18317" lon="5.50209">
        <ele>1001.83</ele>
        <time>2012-10-21T14:30:19Z</time>
      </trkpt>
      <trkpt lat="45.18309" lon="5.50247">
        <ele>997.51</ele>
        <time>2012-10-21T14:30:37Z</time>
      </trkpt>
      <trkpt lat="45.1831" lon="5.50257">
        <ele>996.54</ele>
        <time>2012-10-21T14:30:44Z</time>
      </trkpt>
      <trkpt lat="45.18307" lon="5.50284">
        <ele>994.62</ele>
        <time>2012-10-21T14:31:04Z</time>
      </trkpt>
      <trkpt lat="45.18296" lon="5.50291">
        <ele>994.14</ele>
        <time>2012-10-21T14:31:12Z</time>
      </trkpt>
      <trkpt lat="45.18293" lon="5.50296">
        <ele>993.66</ele>
        <time>2012-10-21T14:31:15Z</time>
      </trkpt>
      <trkpt lat="45.18292" lon="5.50298">
        <ele>993.18</ele>
        <time>2012-10-21T14:31:16Z</time>
      </trkpt>
      <trkpt lat="45.18283" lon="5.50306">
        <ele>991.74</ele>
        <time>2012-10-21T14:31:34Z</time>
      </trkpt>
      <trkpt lat="45.18276" lon="5.50314">
        <ele>991.26</ele>
        <time>2012-10-21T14:31:45Z</time>
      </trkpt>
      <trkpt lat="45.18274" lon="5.50315">
        <ele>991.26</ele>
        <time>2012-10-21T14:31:46Z</time>
      </trkpt>
      <trkpt lat="45.1826" lon="5.50325">
        <ele>991.26</ele>
        <time>2012-10-21T14:32:00Z</time>
      </trkpt>
      <trkpt lat="45.18265" lon="5.50327">
        <ele>990.78</ele>
        <time>2012-10-21T14:32:06Z</time>
      </trkpt>
      <trkpt lat="45.18266" lon="5.50327">
        <ele>990.78</ele>
        <time>2012-10-21T14:32:07Z</time>
      </trkpt>
      <trkpt lat="45.18268" lon="5.50318">
        <ele>991.74</ele>
        <time>2012-10-21T14:32:22Z</time>
      </trkpt>
      <trkpt lat="45.18267" lon="5.50312">
        <ele>991.74</ele>
        <time>2012-10-21T14:32:25Z</time>
      </trkpt>
      <trkpt lat="45.18265" lon="5.50307">
        <ele>991.74</ele>
        <time>2012-10-21T14:32:28Z</time>
      </trkpt>
      <trkpt lat="45.1826" lon="5.50294">
        <ele>992.7</ele>
        <time>2012-10-21T14:32:37Z</time>
      </trkpt>
      <trkpt lat="45.18254" lon="5.50264">
        <ele>993.66</ele>
        <time>2012-10-21T14:32:51Z</time>
      </trkpt>
      <trkpt lat="45.18244" lon="5.50247">
        <ele>993.18</ele>
        <time>2012-10-21T14:33:06Z</time>
      </trkpt>
      <trkpt lat="45.18226" lon="5.50216">
        <ele>989.33</ele>
        <time>2012-10-21T14:33:24Z</time>
      </trkpt>
      <trkpt lat="45.18218" lon="5.50203">
        <ele>988.85</ele>
        <time>2012-10-21T14:33:45Z</time>
      </trkpt>
      <trkpt lat="45.18197" lon="5.50183">
        <ele>988.37</ele>
        <time>2012-10-21T14:34:04Z</time>
      </trkpt>
      <trkpt lat="45.18176" lon="5.50166">
        <ele>986.93</ele>
        <time>2012-10-21T14:34:28Z</time>
      </trkpt>
      <trkpt lat="45.18152" lon="5.50157">
        <ele>984.53</ele>
        <time>2012-10-21T14:34:50Z</time>
      </trkpt>
      <trkpt lat="45.18143" lon="5.50156">
        <ele>983.57</ele>
        <time>2012-10-21T14:34:54Z</time>
      </trkpt>
      <trkpt lat="45.18112" lon="5.50158">
        <ele>975.39</ele>
        <time>2012-10-21T14:35:16Z</time>
      </trkpt>
      <trkpt lat="45.18083" lon="5.50148">
        <ele>968.67</ele>
        <time>2012-10-21T14:35:38Z</time>
      </trkpt>
      <trkpt lat="45.1806" lon="5.5012">
        <ele>962.42</ele>
        <time>2012-10-21T14:36:02Z</time>
      </trkpt>
      <trkpt lat="45.18065" lon="5.5011">
        <ele>961.94</ele>
        <time>2012-10-21T14:36:17Z</time>
      </trkpt>
      <trkpt lat="45.18073" lon="5.50102">
        <ele>959.53</ele>
        <time>2012-10-21T14:36:26Z</time>
      </trkpt>
      <trkpt lat="45.18074" lon="5.50102">
        <ele>959.05</ele>
        <time>2012-10-21T14:36:27Z</time>
      </trkpt>
      <trkpt lat="45.18083" lon="5.50097">
        <ele>952.32</ele>
        <time>2012-10-21T14:36:43Z</time>
      </trkpt>
      <trkpt lat="45.18076" lon="5.50101">
        <ele>951.84</ele>
        <time>2012-10-21T14:36:54Z</time>
      </trkpt>
      <trkpt lat="45.18058" lon="5.50108">
        <ele>952.8</ele>
        <time>2012-10-21T14:37:15Z</time>
      </trkpt>
      <trkpt lat="45.18027" lon="5.50115">
        <ele>953.77</ele>
        <time>2012-10-21T14:37:39Z</time>
      </trkpt>
      <trkpt lat="45.18006" lon="5.5012">
        <ele>948.96</ele>
        <time>2012-10-21T14:37:53Z</time>
      </trkpt>
      <trkpt lat="45.18002" lon="5.50124">
        <ele>948</ele>
        <time>2012-10-21T14:37:58Z</time>
      </trkpt>
      <trkpt lat="45.1799" lon="5.50138">
        <ele>948.48</ele>
        <time>2012-10-21T14:38:13Z</time>
      </trkpt>
      <trkpt lat="45.17973" lon="5.50166">
        <ele>949.92</ele>
        <time>2012-10-21T14:38:37Z</time>
      </trkpt>
      <trkpt lat="45.17968" lon="5.50176">
        <ele>950.4</ele>
        <time>2012-10-21T14:38:47Z</time>
      </trkpt>
      <trkpt lat="45.1796" lon="5.50202">
        <ele>951.84</ele>
        <time>2012-10-21T14:39:05Z</time>
      </trkpt>
      <trkpt lat="45.17946" lon="5.50214">
        <ele>952.8</ele>
        <time>2012-10-21T14:39:22Z</time>
      </trkpt>
      <trkpt lat="45.17942" lon="5.50222">
        <ele>954.73</ele>
        <time>2012-10-21T14:39:32Z</time>
      </trkpt>
      <trkpt lat="45.17937" lon="5.50238">
        <ele>959.05</ele>
        <time>2012-10-21T14:39:52Z</time>
      </trkpt>
      <trkpt lat="45.17959" lon="5.50272">
        <ele>966.26</ele>
        <time>2012-10-21T14:40:16Z</time>
      </trkpt>
      <trkpt lat="45.17963" lon="5.50263">
        <ele>966.26</ele>
        <time>2012-10-21T14:40:32Z</time>
      </trkpt>
      <trkpt lat="45.17955" lon="5.50253">
        <ele>967.22</ele>
        <time>2012-10-21T14:40:43Z</time>
      </trkpt>
      <trkpt lat="45.17954" lon="5.5025">
        <ele>967.22</ele>
        <time>2012-10-21T14:40:46Z</time>
      </trkpt>
      <trkpt lat="45.17948" lon="5.50239">
        <ele>968.67</ele>
        <time>2012-10-21T14:40:56Z</time>
      </trkpt>
      <trkpt lat="45.1795" lon="5.50225">
        <ele>970.11</ele>
        <time>2012-10-21T14:41:05Z</time>
      </trkpt>
      <trkpt lat="45.1795" lon="5.50198">
        <ele>972.03</ele>
        <time>2012-10-21T14:41:23Z</time>
      </trkpt>
      <trkpt lat="45.1795" lon="5.50188">
        <ele>972.51</ele>
        <time>2012-10-21T14:41:32Z</time>
      </trkpt>
      <trkpt lat="45.17931" lon="5.50178">
        <ele>970.11</ele>
        <time>2012-10-21T14:41:51Z</time>
      </trkpt>
      <trkpt lat="45.1793" lon="5.50176">
        <ele>970.11</ele>
        <time>2012-10-21T14:41:53Z</time>
      </trkpt>
      <trkpt lat="45.17922" lon="5.50142">
        <ele>970.11</ele>
        <time>2012-10-21T14:42:14Z</time>
      </trkpt>
      <trkpt lat="45.17914" lon="5.50111">
        <ele>971.07</ele>
        <time>2012-10-21T14:42:34Z</time>
      </trkpt>
      <trkpt lat="45.17898" lon="5.50088">
        <ele>967.7</ele>
        <time>2012-10-21T14:42:52Z</time>
      </trkpt>
      <trkpt lat="45.17871" lon="5.50087">
        <ele>963.38</ele>
        <time>2012-10-21T14:43:17Z</time>
      </trkpt>
      <trkpt lat="45.17851" lon="5.50102">
        <ele>960.98</ele>
        <time>2012-10-21T14:43:41Z</time>
      </trkpt>
      <trkpt lat="45.17842" lon="5.5012">
        <ele>960.01</ele>
        <time>2012-10-21T14:43:53Z</time>
      </trkpt>
      <trkpt lat="45.17826" lon="5.50145">
        <ele>960.01</ele>
        <time>2012-10-21T14:44:08Z</time>
      </trkpt>
      <trkpt lat="45.17824" lon="5.5017">
        <ele>963.38</ele>
        <time>2012-10-21T14:44:28Z</time>
      </trkpt>
      <trkpt lat="45.17821" lon="5.50172">
        <ele>963.38</ele>
        <time>2012-10-21T14:44:31Z</time>
      </trkpt>
      <trkpt lat="45.17805" lon="5.50189">
        <ele>967.7</ele>
        <time>2012-10-21T14:44:53Z</time>
      </trkpt>
      <trkpt lat="45.17799" lon="5.50198">
        <ele>971.55</ele>
        <time>2012-10-21T14:45:17Z</time>
      </trkpt>
      <trkpt lat="45.17782" lon="5.50213">
        <ele>973.47</ele>
        <time>2012-10-21T14:45:34Z</time>
      </trkpt>
      <trkpt lat="45.17781" lon="5.50248">
        <ele>975.88</ele>
        <time>2012-10-21T14:45:56Z</time>
      </trkpt>
      <trkpt lat="45.17782" lon="5.5026">
        <ele>977.32</ele>
        <time>2012-10-21T14:46:07Z</time>
      </trkpt>
      <trkpt lat="45.17772" lon="5.50267">
        <ele>978.28</ele>
        <time>2012-10-21T14:46:17Z</time>
      </trkpt>
      <trkpt lat="45.17765" lon="5.50283">
        <ele>981.64</ele>
        <time>2012-10-21T14:46:28Z</time>
      </trkpt>
      <trkpt lat="45.17766" lon="5.50312">
        <ele>981.64</ele>
        <time>2012-10-21T14:46:49Z</time>
      </trkpt>
      <trkpt lat="45.17762" lon="5.50331">
        <ele>985.97</ele>
        <time>2012-10-21T14:47:16Z</time>
      </trkpt>
      <trkpt lat="45.17763" lon="5.50313">
        <ele>989.33</ele>
        <time>2012-10-21T14:47:43Z</time>
      </trkpt>
      <trkpt lat="45.17757" lon="5.50306">
        <ele>986.45</ele>
        <time>2012-10-21T14:47:56Z</time>
      </trkpt>
      <trkpt lat="45.17744" lon="5.50276">
        <ele>982.6</ele>
        <time>2012-10-21T14:48:18Z</time>
      </trkpt>
      <trkpt lat="45.17732" lon="5.50244">
        <ele>973.47</ele>
        <time>2012-10-21T14:48:44Z</time>
      </trkpt>
      <trkpt lat="45.17724" lon="5.5024">
        <ele>978.28</ele>
        <time>2012-10-21T14:48:52Z</time>
      </trkpt>
      <trkpt lat="45.17707" lon="5.50239">
        <ele>979.72</ele>
        <time>2012-10-21T14:49:05Z</time>
      </trkpt>
      <trkpt lat="45.17702" lon="5.5025">
        <ele>974.91</ele>
        <time>2012-10-21T14:49:18Z</time>
      </trkpt>
      <trkpt lat="45.17697" lon="5.50268">
        <ele>974.43</ele>
        <time>2012-10-21T14:49:38Z</time>
      </trkpt>
      <trkpt lat="45.17692" lon="5.50295">
        <ele>980.2</ele>
        <time>2012-10-21T14:49:55Z</time>
      </trkpt>
      <trkpt lat="45.17686" lon="5.5031">
        <ele>980.68</ele>
        <time>2012-10-21T14:50:08Z</time>
      </trkpt>
      <trkpt lat="45.17678" lon="5.50306">
        <ele>980.68</ele>
        <time>2012-10-21T14:50:25Z</time>
      </trkpt>
      <trkpt lat="45.17668" lon="5.50299">
        <ele>981.16</ele>
        <time>2012-10-21T14:50:43Z</time>
      </trkpt>
      <trkpt lat="45.17682" lon="5.50308">
        <ele>980.2</ele>
        <time>2012-10-21T14:50:59Z</time>
      </trkpt>
      <trkpt lat="45.1769" lon="5.50317">
        <ele>983.57</ele>
        <time>2012-10-21T14:51:32Z</time>
      </trkpt>
      <trkpt lat="45.17686" lon="5.50312">
        <ele>982.12</ele>
        <time>2012-10-21T14:51:49Z</time>
      </trkpt>
      <trkpt lat="45.17678" lon="5.50316">
        <ele>980.68</ele>
        <time>2012-10-21T14:52:06Z</time>
      </trkpt>
      <trkpt lat="45.17675" lon="5.50318">
        <ele>979.72</ele>
        <time>2012-10-21T14:52:23Z</time>
      </trkpt>
      <trkpt lat="45.17675" lon="5.50319">
        <ele>979.24</ele>
        <time>2012-10-21T14:52:36Z</time>
      </trkpt>
      <trkpt lat="45.17684" lon="5.50317">
        <ele>977.8</ele>
        <time>2012-10-21T14:52:46Z</time>
      </trkpt>
      <trkpt lat="45.17688" lon="5.50313">
        <ele>977.8</ele>
        <time>2012-10-21T14:52:51Z</time>
      </trkpt>
      <trkpt lat="45.17684" lon="5.50311">
        <ele>977.8</ele>
        <time>2012-10-21T14:52:54Z</time>
      </trkpt>
      <trkpt lat="45.1769" lon="5.50312">
        <ele>977.8</ele>
        <time>2012-10-21T14:53:13Z</time>
      </trkpt>
      <trkpt lat="45.1769" lon="5.50319">
        <ele>982.6</ele>
        <time>2012-10-21T14:53:28Z</time>
      </trkpt>
      <trkpt lat="45.17684" lon="5.50317">
        <ele>981.16</ele>
        <time>2012-10-21T14:53:52Z</time>
      </trkpt>
      <trkpt lat="45.17671" lon="5.50343">
        <ele>980.68</ele>
        <time>2012-10-21T14:54:10Z</time>
      </trkpt>
      <trkpt lat="45.17666" lon="5.50346">
        <ele>981.64</ele>
        <time>2012-10-21T14:54:13Z</time>
      </trkpt>
      <trkpt lat="45.17665" lon="5.50347">
        <ele>982.12</ele>
        <time>2012-10-21T14:54:14Z</time>
      </trkpt>
      <trkpt lat="45.17647" lon="5.50357">
        <ele>985.49</ele>
        <time>2012-10-21T14:54:29Z</time>
      </trkpt>
      <trkpt lat="45.17633" lon="5.5037">
        <ele>987.41</ele>
        <time>2012-10-21T14:54:44Z</time>
      </trkpt>
      <trkpt lat="45.17624" lon="5.50377">
        <ele>991.74</ele>
        <time>2012-10-21T14:54:54Z</time>
      </trkpt>
      <trkpt lat="45.17622" lon="5.50379">
        <ele>992.7</ele>
        <time>2012-10-21T14:54:56Z</time>
      </trkpt>
      <trkpt lat="45.17618" lon="5.5039">
        <ele>993.66</ele>
        <time>2012-10-21T14:55:03Z</time>
      </trkpt>
      <trkpt lat="45.17617" lon="5.50392">
        <ele>994.14</ele>
        <time>2012-10-21T14:55:04Z</time>
      </trkpt>
      <trkpt lat="45.17606" lon="5.50405">
        <ele>997.02</ele>
        <time>2012-10-21T14:55:20Z</time>
      </trkpt>
      <trkpt lat="45.17605" lon="5.50404">
        <ele>997.02</ele>
        <time>2012-10-21T14:55:21Z</time>
      </trkpt>
      <trkpt lat="45.17597" lon="5.50399">
        <ele>999.91</ele>
        <time>2012-10-21T14:55:40Z</time>
      </trkpt>
      <trkpt lat="45.17599" lon="5.50394">
        <ele>999.43</ele>
        <time>2012-10-21T14:55:45Z</time>
      </trkpt>
      <trkpt lat="45.17603" lon="5.50385">
        <ele>1000.39</ele>
        <time>2012-10-21T14:55:53Z</time>
      </trkpt>
      <trkpt lat="45.17598" lon="5.50384">
        <ele>999.43</ele>
        <time>2012-10-21T14:56:11Z</time>
      </trkpt>
      <trkpt lat="45.17596" lon="5.50382">
        <ele>996.54</ele>
        <time>2012-10-21T14:56:31Z</time>
      </trkpt>
      <trkpt lat="45.17601" lon="5.50382">
        <ele>997.51</ele>
        <time>2012-10-21T14:56:53Z</time>
      </trkpt>
      <trkpt lat="45.17611" lon="5.50379">
        <ele>999.43</ele>
        <time>2012-10-21T14:57:09Z</time>
      </trkpt>
      <trkpt lat="45.17619" lon="5.50369">
        <ele>996.06</ele>
        <time>2012-10-21T14:57:22Z</time>
      </trkpt>
      <trkpt lat="45.17629" lon="5.50362">
        <ele>990.78</ele>
        <time>2012-10-21T14:57:39Z</time>
      </trkpt>
      <trkpt lat="45.1763" lon="5.50361">
        <ele>990.78</ele>
        <time>2012-10-21T14:57:40Z</time>
      </trkpt>
      <trkpt lat="45.17643" lon="5.50351">
        <ele>988.85</ele>
        <time>2012-10-21T14:58:00Z</time>
      </trkpt>
      <trkpt lat="45.17656" lon="5.50351">
        <ele>989.81</ele>
        <time>2012-10-21T14:58:13Z</time>
      </trkpt>
      <trkpt lat="45.17658" lon="5.50353">
        <ele>989.33</ele>
        <time>2012-10-21T14:58:16Z</time>
      </trkpt>
      <trkpt lat="45.1766" lon="5.50352">
        <ele>989.33</ele>
        <time>2012-10-21T14:58:17Z</time>
      </trkpt>
      <trkpt lat="45.17667" lon="5.50348">
        <ele>988.85</ele>
        <time>2012-10-21T14:58:23Z</time>
      </trkpt>
      <trkpt lat="45.17669" lon="5.50346">
        <ele>989.33</ele>
        <time>2012-10-21T14:58:24Z</time>
      </trkpt>
      <trkpt lat="45.17671" lon="5.50343">
        <ele>988.85</ele>
        <time>2012-10-21T14:58:26Z</time>
      </trkpt>
      <trkpt lat="45.17672" lon="5.50343">
        <ele>988.37</ele>
        <time>2012-10-21T14:58:27Z</time>
      </trkpt>
      <trkpt lat="45.17674" lon="5.50343">
        <ele>988.37</ele>
        <time>2012-10-21T14:58:28Z</time>
      </trkpt>
      <trkpt lat="45.17675" lon="5.50344">
        <ele>988.37</ele>
        <time>2012-10-21T14:58:29Z</time>
      </trkpt>
      <trkpt lat="45.17672" lon="5.50338">
        <ele>980.68</ele>
        <time>2012-10-21T14:58:46Z</time>
      </trkpt>
      <trkpt lat="45.17673" lon="5.50336">
        <ele>980.2</ele>
        <time>2012-10-21T14:58:54Z</time>
      </trkpt>
      <trkpt lat="45.17676" lon="5.50332">
        <ele>980.2</ele>
        <time>2012-10-21T14:58:57Z</time>
      </trkpt>
      <trkpt lat="45.17678" lon="5.50333">
        <ele>980.2</ele>
        <time>2012-10-21T14:58:58Z</time>
      </trkpt>
      <trkpt lat="45.17679" lon="5.50334">
        <ele>980.2</ele>
        <time>2012-10-21T14:58:59Z</time>
      </trkpt>
      <trkpt lat="45.17683" lon="5.50319">
        <ele>977.8</ele>
        <time>2012-10-21T14:59:16Z</time>
      </trkpt>
      <trkpt lat="45.17685" lon="5.50313">
        <ele>976.36</ele>
        <time>2012-10-21T14:59:45Z</time>
      </trkpt>
      <trkpt lat="45.1769" lon="5.50309">
        <ele>977.32</ele>
        <time>2012-10-21T15:00:14Z</time>
      </trkpt>
      <trkpt lat="45.17692" lon="5.50299">
        <ele>978.76</ele>
        <time>2012-10-21T15:00:54Z</time>
      </trkpt>
      <trkpt lat="45.17692" lon="5.50303">
        <ele>981.16</ele>
        <time>2012-10-21T15:01:45Z</time>
      </trkpt>
      <trkpt lat="45.17693" lon="5.50315">
        <ele>978.28</ele>
        <time>2012-10-21T15:02:06Z</time>
      </trkpt>
      <trkpt lat="45.17693" lon="5.50314">
        <ele>978.76</ele>
        <time>2012-10-21T15:02:46Z</time>
      </trkpt>
      <trkpt lat="45.17694" lon="5.5031">
        <ele>976.84</ele>
        <time>2012-10-21T15:03:18Z</time>
      </trkpt>
      <trkpt lat="45.17692" lon="5.50308">
        <ele>980.68</ele>
        <time>2012-10-21T15:03:51Z</time>
      </trkpt>
      <trkpt lat="45.17692" lon="5.50311">
        <ele>980.68</ele>
        <time>2012-10-21T15:04:35Z</time>
      </trkpt>
      <trkpt lat="45.17695" lon="5.50314">
        <ele>982.12</ele>
        <time>2012-10-21T15:05:18Z</time>
      </trkpt>
      <trkpt lat="45.17696" lon="5.50317">
        <ele>982.12</ele>
        <time>2012-10-21T15:06:12Z</time>
      </trkpt>
      <trkpt lat="45.17689" lon="5.50316">
        <ele>974.91</ele>
        <time>2012-10-21T15:06:51Z</time>
      </trkpt>
      <trkpt lat="45.17692" lon="5.50316">
        <ele>980.68</ele>
        <time>2012-10-21T15:07:36Z</time>
      </trkpt>
      <trkpt lat="45.17691" lon="5.50304">
        <ele>980.2</ele>
        <time>2012-10-21T15:08:07Z</time>
      </trkpt>
      <trkpt lat="45.1769" lon="5.50303">
        <ele>981.64</ele>
        <time>2012-10-21T15:08:36Z</time>
      </trkpt>
      <trkpt lat="45.17685" lon="5.50306">
        <ele>978.76</ele>
        <time>2012-10-21T15:09:10Z</time>
      </trkpt>
      <trkpt lat="45.17683" lon="5.50308">
        <ele>978.76</ele>
        <time>2012-10-21T15:09:20Z</time>
      </trkpt>
      <trkpt lat="45.17685" lon="5.503">
        <ele>978.76</ele>
        <time>2012-10-21T15:09:25Z</time>
      </trkpt>
      <trkpt lat="45.17688" lon="5.50291">
        <ele>977.8</ele>
        <time>2012-10-21T15:09:30Z</time>
      </trkpt>
      <trkpt lat="45.17698" lon="5.50265">
        <ele>969.63</ele>
        <time>2012-10-21T15:09:50Z</time>
      </trkpt>
      <trkpt lat="45.17704" lon="5.50244">
        <ele>964.82</ele>
        <time>2012-10-21T15:10:05Z</time>
      </trkpt>
      <trkpt lat="45.17713" lon="5.50205">
        <ele>961.46</ele>
        <time>2012-10-21T15:10:32Z</time>
      </trkpt>
      <trkpt lat="45.17722" lon="5.50176">
        <ele>955.21</ele>
        <time>2012-10-21T15:10:55Z</time>
      </trkpt>
      <trkpt lat="45.17724" lon="5.50165">
        <ele>955.69</ele>
        <time>2012-10-21T15:11:04Z</time>
      </trkpt>
      <trkpt lat="45.17717" lon="5.50159">
        <ele>953.77</ele>
        <time>2012-10-21T15:11:10Z</time>
      </trkpt>
      <trkpt lat="45.17722" lon="5.5013">
        <ele>945.11</ele>
        <time>2012-10-21T15:11:32Z</time>
      </trkpt>
      <trkpt lat="45.17734" lon="5.50124">
        <ele>941.75</ele>
        <time>2012-10-21T15:11:45Z</time>
      </trkpt>
      <trkpt lat="45.17729" lon="5.50111">
        <ele>938.38</ele>
        <time>2012-10-21T15:12:03Z</time>
      </trkpt>
      <trkpt lat="45.17734" lon="5.50079">
        <ele>934.54</ele>
        <time>2012-10-21T15:12:30Z</time>
      </trkpt>
      <trkpt lat="45.17743" lon="5.50054">
        <ele>928.77</ele>
        <time>2012-10-21T15:12:56Z</time>
      </trkpt>
      <trkpt lat="45.17749" lon="5.50028">
        <ele>919.16</ele>
        <time>2012-10-21T15:13:20Z</time>
      </trkpt>
      <trkpt lat="45.17752" lon="5.50013">
        <ele>917.24</ele>
        <time>2012-10-21T15:13:29Z</time>
      </trkpt>
      <trkpt lat="45.17752" lon="5.50008">
        <ele>916.75</ele>
        <time>2012-10-21T15:13:31Z</time>
      </trkpt>
      <trkpt lat="45.1775" lon="5.49979">
        <ele>910.99</ele>
        <time>2012-10-21T15:13:52Z</time>
      </trkpt>
      <trkpt lat="45.1775" lon="5.49945">
        <ele>912.43</ele>
        <time>2012-10-21T15:14:13Z</time>
      </trkpt>
      <trkpt lat="45.17753" lon="5.4992">
        <ele>914.83</ele>
        <time>2012-10-21T15:14:31Z</time>
      </trkpt>
      <trkpt lat="45.17749" lon="5.49877">
        <ele>905.22</ele>
        <time>2012-10-21T15:14:55Z</time>
      </trkpt>
      <trkpt lat="45.17743" lon="5.49869">
        <ele>903.78</ele>
        <time>2012-10-21T15:15:05Z</time>
      </trkpt>
      <trkpt lat="45.1773" lon="5.49861">
        <ele>900.41</ele>
        <time>2012-10-21T15:15:23Z</time>
      </trkpt>
      <trkpt lat="45.17721" lon="5.49863">
        <ele>896.57</ele>
        <time>2012-10-21T15:15:49Z</time>
      </trkpt>
      <trkpt lat="45.17707" lon="5.49865">
        <ele>895.12</ele>
        <time>2012-10-21T15:16:06Z</time>
      </trkpt>
      <trkpt lat="45.17706" lon="5.49864">
        <ele>895.12</ele>
        <time>2012-10-21T15:16:07Z</time>
      </trkpt>
      <trkpt lat="45.17687" lon="5.49851">
        <ele>892.72</ele>
        <time>2012-10-21T15:16:27Z</time>
      </trkpt>
    </trkseg>
  </trk>
</gpx>